<?xml version="1.0" encoding="UTF-8" standalone="no" ?>
<gpx xmlns="http://www.topografix.com/GPX/1/1" xmlns:xsi="http://www.w3.org/2001/XMLSchema-instance" xsi:schemaLocation="http://www.topografix.com/GPX/1/1 http://www.topografix.com/GPX/1/1/gpx.xsd" version="1.1" creator="VisuGPX - https://www.visugpx.com">
  <metadata>
    <name>Lac de Chambly</name>
    <desc><![CDATA[tour du lac]]></desc>
  </metadata>
  <trk>
    <name><![CDATA[25-JUIL-13 12:02:32]]></name>
    <trkseg>
      <trkpt lat="46.62255" lon="5.74667">
        <ele>510.12</ele>
        <time>2013-07-25T07:18:38Z</time>
      </trkpt>
      <trkpt lat="46.62255" lon="5.74667">
        <ele>510.12</ele>
        <time>2013-07-25T07:18:39Z</time>
      </trkpt>
      <trkpt lat="46.62255" lon="5.74667">
        <ele>511.08</ele>
        <time>2013-07-25T07:18:41Z</time>
      </trkpt>
      <trkpt lat="46.62255" lon="5.74668">
        <ele>537.03</ele>
        <time>2013-07-25T07:18:46Z</time>
      </trkpt>
      <trkpt lat="46.62255" lon="5.74668">
        <ele>537.03</ele>
        <time>2013-07-25T07:18:47Z</time>
      </trkpt>
      <trkpt lat="46.62255" lon="5.74668">
        <ele>523.09</ele>
        <time>2013-07-25T07:18:50Z</time>
      </trkpt>
      <trkpt lat="46.62253" lon="5.74669">
        <ele>523.58</ele>
        <time>2013-07-25T07:19:18Z</time>
      </trkpt>
      <trkpt lat="46.62253" lon="5.74668">
        <ele>523.09</ele>
        <time>2013-07-25T07:19:44Z</time>
      </trkpt>
      <trkpt lat="46.62254" lon="5.74669">
        <ele>523.09</ele>
        <time>2013-07-25T07:19:56Z</time>
      </trkpt>
      <trkpt lat="46.62262" lon="5.74674">
        <ele>524.06</ele>
        <time>2013-07-25T07:20:09Z</time>
      </trkpt>
      <trkpt lat="46.62263" lon="5.74674">
        <ele>522.61</ele>
        <time>2013-07-25T07:20:14Z</time>
      </trkpt>
      <trkpt lat="46.62273" lon="5.74689">
        <ele>523.09</ele>
        <time>2013-07-25T07:20:21Z</time>
      </trkpt>
      <trkpt lat="46.62271" lon="5.74762">
        <ele>524.06</ele>
        <time>2013-07-25T07:20:36Z</time>
      </trkpt>
      <trkpt lat="46.62265" lon="5.74795">
        <ele>524.54</ele>
        <time>2013-07-25T07:20:44Z</time>
      </trkpt>
      <trkpt lat="46.62286" lon="5.74817">
        <ele>524.54</ele>
        <time>2013-07-25T07:20:51Z</time>
      </trkpt>
      <trkpt lat="46.62302" lon="5.74825">
        <ele>524.54</ele>
        <time>2013-07-25T07:20:55Z</time>
      </trkpt>
      <trkpt lat="46.62329" lon="5.74826">
        <ele>524.54</ele>
        <time>2013-07-25T07:21:01Z</time>
      </trkpt>
      <trkpt lat="46.62377" lon="5.74818">
        <ele>524.06</ele>
        <time>2013-07-25T07:21:11Z</time>
      </trkpt>
      <trkpt lat="46.62387" lon="5.74819">
        <ele>524.54</ele>
        <time>2013-07-25T07:21:13Z</time>
      </trkpt>
      <trkpt lat="46.62472" lon="5.7487">
        <ele>524.06</ele>
        <time>2013-07-25T07:21:31Z</time>
      </trkpt>
      <trkpt lat="46.62486" lon="5.7488">
        <ele>524.06</ele>
        <time>2013-07-25T07:21:34Z</time>
      </trkpt>
      <trkpt lat="46.62504" lon="5.74889">
        <ele>524.06</ele>
        <time>2013-07-25T07:21:38Z</time>
      </trkpt>
      <trkpt lat="46.62536" lon="5.74889">
        <ele>523.09</ele>
        <time>2013-07-25T07:21:44Z</time>
      </trkpt>
      <trkpt lat="46.62559" lon="5.7488">
        <ele>521.65</ele>
        <time>2013-07-25T07:21:48Z</time>
      </trkpt>
      <trkpt lat="46.62596" lon="5.7491">
        <ele>519.25</ele>
        <time>2013-07-25T07:21:56Z</time>
      </trkpt>
      <trkpt lat="46.62622" lon="5.74994">
        <ele>518.29</ele>
        <time>2013-07-25T07:22:06Z</time>
      </trkpt>
      <trkpt lat="46.62653" lon="5.75052">
        <ele>520.69</ele>
        <time>2013-07-25T07:22:18Z</time>
      </trkpt>
      <trkpt lat="46.62662" lon="5.75078">
        <ele>523.58</ele>
        <time>2013-07-25T07:22:27Z</time>
      </trkpt>
      <trkpt lat="46.62664" lon="5.75083">
        <ele>524.54</ele>
        <time>2013-07-25T07:22:29Z</time>
      </trkpt>
      <trkpt lat="46.62676" lon="5.75119">
        <ele>525.98</ele>
        <time>2013-07-25T07:22:42Z</time>
      </trkpt>
      <trkpt lat="46.62677" lon="5.75121">
        <ele>526.46</ele>
        <time>2013-07-25T07:22:43Z</time>
      </trkpt>
      <trkpt lat="46.62705" lon="5.75097">
        <ele>526.46</ele>
        <time>2013-07-25T07:22:55Z</time>
      </trkpt>
      <trkpt lat="46.62732" lon="5.75076">
        <ele>525.5</ele>
        <time>2013-07-25T07:23:03Z</time>
      </trkpt>
      <trkpt lat="46.62786" lon="5.75026">
        <ele>525.02</ele>
        <time>2013-07-25T07:23:18Z</time>
      </trkpt>
      <trkpt lat="46.62848" lon="5.74988">
        <ele>525.02</ele>
        <time>2013-07-25T07:23:33Z</time>
      </trkpt>
      <trkpt lat="46.6287" lon="5.74982">
        <ele>524.54</ele>
        <time>2013-07-25T07:23:38Z</time>
      </trkpt>
      <trkpt lat="46.62915" lon="5.74969">
        <ele>524.06</ele>
        <time>2013-07-25T07:23:48Z</time>
      </trkpt>
      <trkpt lat="46.62947" lon="5.74964">
        <ele>523.09</ele>
        <time>2013-07-25T07:23:55Z</time>
      </trkpt>
      <trkpt lat="46.62958" lon="5.74961">
        <ele>523.09</ele>
        <time>2013-07-25T07:23:57Z</time>
      </trkpt>
      <trkpt lat="46.62982" lon="5.7496">
        <ele>521.65</ele>
        <time>2013-07-25T07:24:01Z</time>
      </trkpt>
      <trkpt lat="46.63066" lon="5.74916">
        <ele>518.77</ele>
        <time>2013-07-25T07:24:14Z</time>
      </trkpt>
      <trkpt lat="46.63172" lon="5.74876">
        <ele>515.88</ele>
        <time>2013-07-25T07:24:30Z</time>
      </trkpt>
      <trkpt lat="46.63258" lon="5.74852">
        <ele>513.96</ele>
        <time>2013-07-25T07:24:43Z</time>
      </trkpt>
      <trkpt lat="46.63354" lon="5.7484">
        <ele>511.08</ele>
        <time>2013-07-25T07:24:56Z</time>
      </trkpt>
      <trkpt lat="46.63377" lon="5.74848">
        <ele>511.08</ele>
        <time>2013-07-25T07:24:59Z</time>
      </trkpt>
      <trkpt lat="46.63428" lon="5.74911">
        <ele>509.16</ele>
        <time>2013-07-25T07:25:08Z</time>
      </trkpt>
      <trkpt lat="46.6343" lon="5.74921">
        <ele>509.16</ele>
        <time>2013-07-25T07:25:09Z</time>
      </trkpt>
      <trkpt lat="46.6345" lon="5.75069">
        <ele>508.19</ele>
        <time>2013-07-25T07:25:26Z</time>
      </trkpt>
      <trkpt lat="46.63461" lon="5.75135">
        <ele>508.67</ele>
        <time>2013-07-25T07:25:34Z</time>
      </trkpt>
      <trkpt lat="46.63464" lon="5.75157">
        <ele>508.19</ele>
        <time>2013-07-25T07:25:37Z</time>
      </trkpt>
      <trkpt lat="46.63483" lon="5.75205">
        <ele>507.71</ele>
        <time>2013-07-25T07:25:44Z</time>
      </trkpt>
      <trkpt lat="46.63531" lon="5.75263">
        <ele>508.67</ele>
        <time>2013-07-25T07:25:57Z</time>
      </trkpt>
      <trkpt lat="46.63565" lon="5.75304">
        <ele>508.67</ele>
        <time>2013-07-25T07:26:07Z</time>
      </trkpt>
      <trkpt lat="46.63582" lon="5.7531">
        <ele>509.16</ele>
        <time>2013-07-25T07:26:11Z</time>
      </trkpt>
      <trkpt lat="46.63595" lon="5.75307">
        <ele>509.16</ele>
        <time>2013-07-25T07:26:14Z</time>
      </trkpt>
      <trkpt lat="46.63653" lon="5.75258">
        <ele>509.64</ele>
        <time>2013-07-25T07:26:29Z</time>
      </trkpt>
      <trkpt lat="46.63673" lon="5.75235">
        <ele>510.12</ele>
        <time>2013-07-25T07:26:35Z</time>
      </trkpt>
      <trkpt lat="46.63694" lon="5.75213">
        <ele>510.6</ele>
        <time>2013-07-25T07:26:41Z</time>
      </trkpt>
      <trkpt lat="46.63753" lon="5.75175">
        <ele>512.04</ele>
        <time>2013-07-25T07:26:57Z</time>
      </trkpt>
      <trkpt lat="46.6381" lon="5.75169">
        <ele>512.52</ele>
        <time>2013-07-25T07:27:12Z</time>
      </trkpt>
      <trkpt lat="46.6386" lon="5.75181">
        <ele>513.48</ele>
        <time>2013-07-25T07:27:25Z</time>
      </trkpt>
      <trkpt lat="46.63915" lon="5.75201">
        <ele>514.92</ele>
        <time>2013-07-25T07:27:37Z</time>
      </trkpt>
      <trkpt lat="46.63981" lon="5.75231">
        <ele>515.4</ele>
        <time>2013-07-25T07:27:53Z</time>
      </trkpt>
      <trkpt lat="46.64032" lon="5.75263">
        <ele>516.37</ele>
        <time>2013-07-25T07:28:05Z</time>
      </trkpt>
      <trkpt lat="46.64065" lon="5.75289">
        <ele>517.33</ele>
        <time>2013-07-25T07:28:14Z</time>
      </trkpt>
      <trkpt lat="46.64089" lon="5.75311">
        <ele>517.33</ele>
        <time>2013-07-25T07:28:21Z</time>
      </trkpt>
      <trkpt lat="46.64153" lon="5.75367">
        <ele>518.77</ele>
        <time>2013-07-25T07:28:39Z</time>
      </trkpt>
      <trkpt lat="46.64208" lon="5.754">
        <ele>518.77</ele>
        <time>2013-07-25T07:28:54Z</time>
      </trkpt>
      <trkpt lat="46.64253" lon="5.7543">
        <ele>520.21</ele>
        <time>2013-07-25T07:29:06Z</time>
      </trkpt>
      <trkpt lat="46.6431" lon="5.75471">
        <ele>520.69</ele>
        <time>2013-07-25T07:29:20Z</time>
      </trkpt>
      <trkpt lat="46.6437" lon="5.75533">
        <ele>522.61</ele>
        <time>2013-07-25T07:29:36Z</time>
      </trkpt>
      <trkpt lat="46.64432" lon="5.75603">
        <ele>523.58</ele>
        <time>2013-07-25T07:29:54Z</time>
      </trkpt>
      <trkpt lat="46.64476" lon="5.75639">
        <ele>524.06</ele>
        <time>2013-07-25T07:30:06Z</time>
      </trkpt>
      <trkpt lat="46.64535" lon="5.75649">
        <ele>525.02</ele>
        <time>2013-07-25T07:30:20Z</time>
      </trkpt>
      <trkpt lat="46.64559" lon="5.75666">
        <ele>525.02</ele>
        <time>2013-07-25T07:30:26Z</time>
      </trkpt>
      <trkpt lat="46.64574" lon="5.75691">
        <ele>525.5</ele>
        <time>2013-07-25T07:30:31Z</time>
      </trkpt>
      <trkpt lat="46.64581" lon="5.75708">
        <ele>525.98</ele>
        <time>2013-07-25T07:30:34Z</time>
      </trkpt>
      <trkpt lat="46.64593" lon="5.75736">
        <ele>525.98</ele>
        <time>2013-07-25T07:30:39Z</time>
      </trkpt>
      <trkpt lat="46.64636" lon="5.75812">
        <ele>527.9</ele>
        <time>2013-07-25T07:30:56Z</time>
      </trkpt>
      <trkpt lat="46.64673" lon="5.75878">
        <ele>528.38</ele>
        <time>2013-07-25T07:31:11Z</time>
      </trkpt>
      <trkpt lat="46.64723" lon="5.75954">
        <ele>528.38</ele>
        <time>2013-07-25T07:31:27Z</time>
      </trkpt>
      <trkpt lat="46.64747" lon="5.76002">
        <ele>528.38</ele>
        <time>2013-07-25T07:31:36Z</time>
      </trkpt>
      <trkpt lat="46.64776" lon="5.76085">
        <ele>529.34</ele>
        <time>2013-07-25T07:31:50Z</time>
      </trkpt>
      <trkpt lat="46.6478" lon="5.76111">
        <ele>529.82</ele>
        <time>2013-07-25T07:31:54Z</time>
      </trkpt>
      <trkpt lat="46.64778" lon="5.76161">
        <ele>529.82</ele>
        <time>2013-07-25T07:32:02Z</time>
      </trkpt>
      <trkpt lat="46.64752" lon="5.76279">
        <ele>531.27</ele>
        <time>2013-07-25T07:32:21Z</time>
      </trkpt>
      <trkpt lat="46.64731" lon="5.76378">
        <ele>532.23</ele>
        <time>2013-07-25T07:32:38Z</time>
      </trkpt>
      <trkpt lat="46.64722" lon="5.76461">
        <ele>534.63</ele>
        <time>2013-07-25T07:32:54Z</time>
      </trkpt>
      <trkpt lat="46.64729" lon="5.76569">
        <ele>536.55</ele>
        <time>2013-07-25T07:33:15Z</time>
      </trkpt>
      <trkpt lat="46.64757" lon="5.76684">
        <ele>538.48</ele>
        <time>2013-07-25T07:33:37Z</time>
      </trkpt>
      <trkpt lat="46.64788" lon="5.76778">
        <ele>537.99</ele>
        <time>2013-07-25T07:33:55Z</time>
      </trkpt>
      <trkpt lat="46.64802" lon="5.76892">
        <ele>537.03</ele>
        <time>2013-07-25T07:34:12Z</time>
      </trkpt>
      <trkpt lat="46.64803" lon="5.769">
        <ele>537.03</ele>
        <time>2013-07-25T07:34:13Z</time>
      </trkpt>
      <trkpt lat="46.64807" lon="5.76916">
        <ele>536.55</ele>
        <time>2013-07-25T07:34:15Z</time>
      </trkpt>
      <trkpt lat="46.64821" lon="5.76948">
        <ele>535.11</ele>
        <time>2013-07-25T07:34:19Z</time>
      </trkpt>
      <trkpt lat="46.6487" lon="5.77021">
        <ele>532.23</ele>
        <time>2013-07-25T07:34:28Z</time>
      </trkpt>
      <trkpt lat="46.64881" lon="5.77038">
        <ele>531.27</ele>
        <time>2013-07-25T07:34:30Z</time>
      </trkpt>
      <trkpt lat="46.64882" lon="5.77126">
        <ele>527.9</ele>
        <time>2013-07-25T07:34:37Z</time>
      </trkpt>
      <trkpt lat="46.64863" lon="5.77174">
        <ele>526.94</ele>
        <time>2013-07-25T07:34:41Z</time>
      </trkpt>
      <trkpt lat="46.64828" lon="5.7727">
        <ele>523.09</ele>
        <time>2013-07-25T07:34:49Z</time>
      </trkpt>
      <trkpt lat="46.64823" lon="5.77281">
        <ele>523.09</ele>
        <time>2013-07-25T07:34:50Z</time>
      </trkpt>
      <trkpt lat="46.64793" lon="5.77366">
        <ele>519.73</ele>
        <time>2013-07-25T07:34:57Z</time>
      </trkpt>
      <trkpt lat="46.64766" lon="5.7744">
        <ele>516.85</ele>
        <time>2013-07-25T07:35:03Z</time>
      </trkpt>
      <trkpt lat="46.64758" lon="5.77465">
        <ele>515.88</ele>
        <time>2013-07-25T07:35:05Z</time>
      </trkpt>
      <trkpt lat="46.64753" lon="5.77485">
        <ele>514.92</ele>
        <time>2013-07-25T07:35:07Z</time>
      </trkpt>
      <trkpt lat="46.64747" lon="5.77515">
        <ele>512.52</ele>
        <time>2013-07-25T07:35:13Z</time>
      </trkpt>
      <trkpt lat="46.64744" lon="5.7752">
        <ele>512.52</ele>
        <time>2013-07-25T07:35:27Z</time>
      </trkpt>
      <trkpt lat="46.64747" lon="5.77526">
        <ele>512.52</ele>
        <time>2013-07-25T07:35:57Z</time>
      </trkpt>
      <trkpt lat="46.64748" lon="5.77572">
        <ele>512.04</ele>
        <time>2013-07-25T07:36:06Z</time>
      </trkpt>
      <trkpt lat="46.64749" lon="5.77591">
        <ele>512.04</ele>
        <time>2013-07-25T07:36:09Z</time>
      </trkpt>
      <trkpt lat="46.64744" lon="5.77638">
        <ele>510.12</ele>
        <time>2013-07-25T07:36:15Z</time>
      </trkpt>
      <trkpt lat="46.64741" lon="5.77708">
        <ele>508.67</ele>
        <time>2013-07-25T07:36:26Z</time>
      </trkpt>
      <trkpt lat="46.64741" lon="5.77714">
        <ele>508.67</ele>
        <time>2013-07-25T07:36:28Z</time>
      </trkpt>
      <trkpt lat="46.64739" lon="5.77716">
        <ele>508.67</ele>
        <time>2013-07-25T07:36:40Z</time>
      </trkpt>
      <trkpt lat="46.6474" lon="5.77721">
        <ele>509.64</ele>
        <time>2013-07-25T07:36:50Z</time>
      </trkpt>
      <trkpt lat="46.64744" lon="5.77737">
        <ele>508.19</ele>
        <time>2013-07-25T07:36:59Z</time>
      </trkpt>
      <trkpt lat="46.64762" lon="5.77739">
        <ele>507.23</ele>
        <time>2013-07-25T07:37:05Z</time>
      </trkpt>
      <trkpt lat="46.64767" lon="5.77745">
        <ele>507.71</ele>
        <time>2013-07-25T07:37:07Z</time>
      </trkpt>
      <trkpt lat="46.64799" lon="5.77768">
        <ele>507.23</ele>
        <time>2013-07-25T07:37:16Z</time>
      </trkpt>
      <trkpt lat="46.64865" lon="5.7781">
        <ele>508.19</ele>
        <time>2013-07-25T07:37:33Z</time>
      </trkpt>
      <trkpt lat="46.64895" lon="5.77829">
        <ele>509.16</ele>
        <time>2013-07-25T07:37:47Z</time>
      </trkpt>
      <trkpt lat="46.64908" lon="5.77872">
        <ele>510.6</ele>
        <time>2013-07-25T07:38:01Z</time>
      </trkpt>
      <trkpt lat="46.64916" lon="5.77914">
        <ele>513.96</ele>
        <time>2013-07-25T07:38:14Z</time>
      </trkpt>
      <trkpt lat="46.64909" lon="5.77952">
        <ele>516.37</ele>
        <time>2013-07-25T07:38:28Z</time>
      </trkpt>
      <trkpt lat="46.64899" lon="5.77969">
        <ele>519.73</ele>
        <time>2013-07-25T07:38:40Z</time>
      </trkpt>
      <trkpt lat="46.64898" lon="5.77972">
        <ele>519.73</ele>
        <time>2013-07-25T07:38:42Z</time>
      </trkpt>
      <trkpt lat="46.64896" lon="5.7798">
        <ele>520.69</ele>
        <time>2013-07-25T07:38:46Z</time>
      </trkpt>
      <trkpt lat="46.64894" lon="5.78001">
        <ele>523.09</ele>
        <time>2013-07-25T07:38:56Z</time>
      </trkpt>
      <trkpt lat="46.64885" lon="5.78021">
        <ele>524.54</ele>
        <time>2013-07-25T07:39:07Z</time>
      </trkpt>
      <trkpt lat="46.64871" lon="5.78057">
        <ele>524.54</ele>
        <time>2013-07-25T07:39:20Z</time>
      </trkpt>
      <trkpt lat="46.64867" lon="5.78072">
        <ele>524.06</ele>
        <time>2013-07-25T07:39:24Z</time>
      </trkpt>
      <trkpt lat="46.64863" lon="5.78083">
        <ele>524.54</ele>
        <time>2013-07-25T07:39:27Z</time>
      </trkpt>
      <trkpt lat="46.64838" lon="5.78128">
        <ele>525.02</ele>
        <time>2013-07-25T07:39:41Z</time>
      </trkpt>
      <trkpt lat="46.64814" lon="5.78177">
        <ele>524.54</ele>
        <time>2013-07-25T07:39:54Z</time>
      </trkpt>
      <trkpt lat="46.64808" lon="5.78205">
        <ele>524.06</ele>
        <time>2013-07-25T07:39:59Z</time>
      </trkpt>
      <trkpt lat="46.64808" lon="5.78229">
        <ele>523.58</ele>
        <time>2013-07-25T07:40:03Z</time>
      </trkpt>
      <trkpt lat="46.64791" lon="5.78298">
        <ele>523.58</ele>
        <time>2013-07-25T07:40:16Z</time>
      </trkpt>
      <trkpt lat="46.64774" lon="5.78369">
        <ele>524.06</ele>
        <time>2013-07-25T07:40:29Z</time>
      </trkpt>
      <trkpt lat="46.64767" lon="5.78418">
        <ele>525.02</ele>
        <time>2013-07-25T07:40:40Z</time>
      </trkpt>
      <trkpt lat="46.64755" lon="5.78475">
        <ele>526.94</ele>
        <time>2013-07-25T07:40:53Z</time>
      </trkpt>
      <trkpt lat="46.64765" lon="5.78531">
        <ele>525.5</ele>
        <time>2013-07-25T07:41:05Z</time>
      </trkpt>
      <trkpt lat="46.64774" lon="5.7861">
        <ele>525.5</ele>
        <time>2013-07-25T07:41:19Z</time>
      </trkpt>
      <trkpt lat="46.64784" lon="5.78688">
        <ele>525.02</ele>
        <time>2013-07-25T07:41:33Z</time>
      </trkpt>
      <trkpt lat="46.64782" lon="5.7875">
        <ele>525.98</ele>
        <time>2013-07-25T07:41:46Z</time>
      </trkpt>
      <trkpt lat="46.64776" lon="5.78807">
        <ele>527.42</ele>
        <time>2013-07-25T07:41:59Z</time>
      </trkpt>
      <trkpt lat="46.64774" lon="5.78819">
        <ele>527.9</ele>
        <time>2013-07-25T07:42:05Z</time>
      </trkpt>
      <trkpt lat="46.64771" lon="5.78826">
        <ele>529.34</ele>
        <time>2013-07-25T07:42:09Z</time>
      </trkpt>
      <trkpt lat="46.64769" lon="5.78831">
        <ele>531.27</ele>
        <time>2013-07-25T07:42:13Z</time>
      </trkpt>
      <trkpt lat="46.64764" lon="5.78843">
        <ele>534.15</ele>
        <time>2013-07-25T07:42:22Z</time>
      </trkpt>
      <trkpt lat="46.64756" lon="5.78859">
        <ele>535.59</ele>
        <time>2013-07-25T07:42:38Z</time>
      </trkpt>
      <trkpt lat="46.64761" lon="5.78857">
        <ele>536.07</ele>
        <time>2013-07-25T07:43:05Z</time>
      </trkpt>
      <trkpt lat="46.64764" lon="5.78854">
        <ele>536.07</ele>
        <time>2013-07-25T07:43:35Z</time>
      </trkpt>
      <trkpt lat="46.64754" lon="5.78852">
        <ele>536.55</ele>
        <time>2013-07-25T07:44:10Z</time>
      </trkpt>
      <trkpt lat="46.64759" lon="5.78859">
        <ele>536.55</ele>
        <time>2013-07-25T07:44:17Z</time>
      </trkpt>
      <trkpt lat="46.64766" lon="5.78875">
        <ele>532.71</ele>
        <time>2013-07-25T07:44:23Z</time>
      </trkpt>
      <trkpt lat="46.64767" lon="5.78877">
        <ele>532.71</ele>
        <time>2013-07-25T07:44:24Z</time>
      </trkpt>
      <trkpt lat="46.6477" lon="5.78889">
        <ele>529.82</ele>
        <time>2013-07-25T07:44:28Z</time>
      </trkpt>
      <trkpt lat="46.64776" lon="5.789">
        <ele>526.46</ele>
        <time>2013-07-25T07:44:32Z</time>
      </trkpt>
      <trkpt lat="46.64778" lon="5.78905">
        <ele>525.5</ele>
        <time>2013-07-25T07:44:34Z</time>
      </trkpt>
      <trkpt lat="46.64782" lon="5.78911">
        <ele>522.61</ele>
        <time>2013-07-25T07:44:37Z</time>
      </trkpt>
      <trkpt lat="46.64785" lon="5.78915">
        <ele>519.25</ele>
        <time>2013-07-25T07:44:41Z</time>
      </trkpt>
      <trkpt lat="46.64785" lon="5.78919">
        <ele>517.81</ele>
        <time>2013-07-25T07:44:45Z</time>
      </trkpt>
      <trkpt lat="46.64781" lon="5.78933">
        <ele>515.4</ele>
        <time>2013-07-25T07:44:48Z</time>
      </trkpt>
      <trkpt lat="46.64784" lon="5.7895">
        <ele>513</ele>
        <time>2013-07-25T07:44:51Z</time>
      </trkpt>
      <trkpt lat="46.64791" lon="5.78987">
        <ele>512.04</ele>
        <time>2013-07-25T07:44:54Z</time>
      </trkpt>
      <trkpt lat="46.64802" lon="5.79068">
        <ele>512.04</ele>
        <time>2013-07-25T07:45:04Z</time>
      </trkpt>
      <trkpt lat="46.64795" lon="5.79113">
        <ele>511.56</ele>
        <time>2013-07-25T07:45:14Z</time>
      </trkpt>
      <trkpt lat="46.64792" lon="5.79128">
        <ele>511.56</ele>
        <time>2013-07-25T07:45:18Z</time>
      </trkpt>
      <trkpt lat="46.64783" lon="5.79151">
        <ele>512.52</ele>
        <time>2013-07-25T07:45:33Z</time>
      </trkpt>
      <trkpt lat="46.6478" lon="5.7916">
        <ele>512.04</ele>
        <time>2013-07-25T07:45:44Z</time>
      </trkpt>
      <trkpt lat="46.64779" lon="5.79165">
        <ele>511.56</ele>
        <time>2013-07-25T07:45:47Z</time>
      </trkpt>
      <trkpt lat="46.64773" lon="5.79177">
        <ele>511.56</ele>
        <time>2013-07-25T07:45:52Z</time>
      </trkpt>
      <trkpt lat="46.6476" lon="5.79206">
        <ele>512.04</ele>
        <time>2013-07-25T07:46:04Z</time>
      </trkpt>
      <trkpt lat="46.64745" lon="5.79227">
        <ele>512.04</ele>
        <time>2013-07-25T07:46:14Z</time>
      </trkpt>
      <trkpt lat="46.64737" lon="5.79244">
        <ele>512.04</ele>
        <time>2013-07-25T07:46:21Z</time>
      </trkpt>
      <trkpt lat="46.64718" lon="5.79277">
        <ele>512.52</ele>
        <time>2013-07-25T07:46:33Z</time>
      </trkpt>
      <trkpt lat="46.64713" lon="5.79284">
        <ele>512.04</ele>
        <time>2013-07-25T07:46:36Z</time>
      </trkpt>
      <trkpt lat="46.647" lon="5.79321">
        <ele>512.04</ele>
        <time>2013-07-25T07:46:46Z</time>
      </trkpt>
      <trkpt lat="46.64688" lon="5.79365">
        <ele>512.04</ele>
        <time>2013-07-25T07:46:57Z</time>
      </trkpt>
      <trkpt lat="46.64682" lon="5.79387">
        <ele>511.08</ele>
        <time>2013-07-25T07:47:02Z</time>
      </trkpt>
      <trkpt lat="46.64668" lon="5.79408">
        <ele>512.04</ele>
        <time>2013-07-25T07:47:09Z</time>
      </trkpt>
      <trkpt lat="46.64662" lon="5.79424">
        <ele>511.56</ele>
        <time>2013-07-25T07:47:12Z</time>
      </trkpt>
      <trkpt lat="46.64656" lon="5.7945">
        <ele>511.56</ele>
        <time>2013-07-25T07:47:17Z</time>
      </trkpt>
      <trkpt lat="46.64642" lon="5.79496">
        <ele>511.08</ele>
        <time>2013-07-25T07:47:28Z</time>
      </trkpt>
      <trkpt lat="46.64638" lon="5.7952">
        <ele>510.6</ele>
        <time>2013-07-25T07:47:38Z</time>
      </trkpt>
      <trkpt lat="46.64637" lon="5.79529">
        <ele>511.08</ele>
        <time>2013-07-25T07:47:44Z</time>
      </trkpt>
      <trkpt lat="46.6463" lon="5.79546">
        <ele>510.6</ele>
        <time>2013-07-25T07:47:51Z</time>
      </trkpt>
      <trkpt lat="46.64614" lon="5.79575">
        <ele>511.08</ele>
        <time>2013-07-25T07:48:04Z</time>
      </trkpt>
      <trkpt lat="46.6461" lon="5.7959">
        <ele>510.6</ele>
        <time>2013-07-25T07:48:11Z</time>
      </trkpt>
      <trkpt lat="46.64603" lon="5.79606">
        <ele>511.08</ele>
        <time>2013-07-25T07:48:23Z</time>
      </trkpt>
      <trkpt lat="46.64598" lon="5.79622">
        <ele>510.6</ele>
        <time>2013-07-25T07:48:38Z</time>
      </trkpt>
      <trkpt lat="46.64595" lon="5.79626">
        <ele>511.08</ele>
        <time>2013-07-25T07:48:46Z</time>
      </trkpt>
      <trkpt lat="46.64588" lon="5.79637">
        <ele>511.08</ele>
        <time>2013-07-25T07:48:57Z</time>
      </trkpt>
      <trkpt lat="46.64587" lon="5.7964">
        <ele>510.6</ele>
        <time>2013-07-25T07:49:01Z</time>
      </trkpt>
      <trkpt lat="46.64581" lon="5.79648">
        <ele>511.08</ele>
        <time>2013-07-25T07:49:05Z</time>
      </trkpt>
      <trkpt lat="46.64566" lon="5.79667">
        <ele>510.6</ele>
        <time>2013-07-25T07:49:16Z</time>
      </trkpt>
      <trkpt lat="46.64564" lon="5.79672">
        <ele>511.08</ele>
        <time>2013-07-25T07:49:19Z</time>
      </trkpt>
      <trkpt lat="46.64561" lon="5.79682">
        <ele>511.56</ele>
        <time>2013-07-25T07:49:24Z</time>
      </trkpt>
      <trkpt lat="46.64548" lon="5.79705">
        <ele>510.6</ele>
        <time>2013-07-25T07:49:32Z</time>
      </trkpt>
      <trkpt lat="46.64547" lon="5.79707">
        <ele>511.08</ele>
        <time>2013-07-25T07:49:33Z</time>
      </trkpt>
      <trkpt lat="46.64541" lon="5.79724">
        <ele>511.08</ele>
        <time>2013-07-25T07:49:39Z</time>
      </trkpt>
      <trkpt lat="46.64531" lon="5.7974">
        <ele>510.6</ele>
        <time>2013-07-25T07:49:43Z</time>
      </trkpt>
      <trkpt lat="46.64515" lon="5.79777">
        <ele>511.08</ele>
        <time>2013-07-25T07:49:55Z</time>
      </trkpt>
      <trkpt lat="46.64509" lon="5.79801">
        <ele>511.08</ele>
        <time>2013-07-25T07:50:04Z</time>
      </trkpt>
      <trkpt lat="46.64505" lon="5.79807">
        <ele>511.08</ele>
        <time>2013-07-25T07:50:06Z</time>
      </trkpt>
      <trkpt lat="46.64497" lon="5.79823">
        <ele>511.56</ele>
        <time>2013-07-25T07:50:10Z</time>
      </trkpt>
      <trkpt lat="46.6448" lon="5.79854">
        <ele>512.52</ele>
        <time>2013-07-25T07:50:23Z</time>
      </trkpt>
      <trkpt lat="46.64472" lon="5.79868">
        <ele>511.56</ele>
        <time>2013-07-25T07:50:36Z</time>
      </trkpt>
      <trkpt lat="46.64461" lon="5.79893">
        <ele>512.04</ele>
        <time>2013-07-25T07:50:47Z</time>
      </trkpt>
      <trkpt lat="46.64459" lon="5.79898">
        <ele>512.04</ele>
        <time>2013-07-25T07:50:49Z</time>
      </trkpt>
      <trkpt lat="46.64452" lon="5.79922">
        <ele>512.04</ele>
        <time>2013-07-25T07:50:58Z</time>
      </trkpt>
      <trkpt lat="46.64437" lon="5.79942">
        <ele>512.04</ele>
        <time>2013-07-25T07:51:05Z</time>
      </trkpt>
      <trkpt lat="46.64428" lon="5.79957">
        <ele>512.04</ele>
        <time>2013-07-25T07:51:09Z</time>
      </trkpt>
      <trkpt lat="46.6442" lon="5.79971">
        <ele>511.56</ele>
        <time>2013-07-25T07:51:14Z</time>
      </trkpt>
      <trkpt lat="46.64404" lon="5.79989">
        <ele>511.56</ele>
        <time>2013-07-25T07:51:20Z</time>
      </trkpt>
      <trkpt lat="46.64378" lon="5.80016">
        <ele>511.08</ele>
        <time>2013-07-25T07:51:31Z</time>
      </trkpt>
      <trkpt lat="46.64357" lon="5.80037">
        <ele>511.08</ele>
        <time>2013-07-25T07:51:41Z</time>
      </trkpt>
      <trkpt lat="46.64352" lon="5.80051">
        <ele>510.6</ele>
        <time>2013-07-25T07:51:52Z</time>
      </trkpt>
      <trkpt lat="46.64334" lon="5.80062">
        <ele>511.56</ele>
        <time>2013-07-25T07:52:05Z</time>
      </trkpt>
      <trkpt lat="46.64315" lon="5.80082">
        <ele>511.56</ele>
        <time>2013-07-25T07:52:15Z</time>
      </trkpt>
      <trkpt lat="46.64312" lon="5.80084">
        <ele>511.56</ele>
        <time>2013-07-25T07:52:17Z</time>
      </trkpt>
      <trkpt lat="46.64301" lon="5.80101">
        <ele>511.08</ele>
        <time>2013-07-25T07:52:28Z</time>
      </trkpt>
      <trkpt lat="46.64294" lon="5.80104">
        <ele>511.56</ele>
        <time>2013-07-25T07:52:32Z</time>
      </trkpt>
      <trkpt lat="46.64274" lon="5.80117">
        <ele>511.56</ele>
        <time>2013-07-25T07:52:43Z</time>
      </trkpt>
      <trkpt lat="46.64268" lon="5.80131">
        <ele>511.56</ele>
        <time>2013-07-25T07:52:54Z</time>
      </trkpt>
      <trkpt lat="46.64251" lon="5.80146">
        <ele>512.52</ele>
        <time>2013-07-25T07:53:05Z</time>
      </trkpt>
      <trkpt lat="46.64227" lon="5.80169">
        <ele>513</ele>
        <time>2013-07-25T07:53:17Z</time>
      </trkpt>
      <trkpt lat="46.64215" lon="5.80184">
        <ele>512.04</ele>
        <time>2013-07-25T07:53:23Z</time>
      </trkpt>
      <trkpt lat="46.64201" lon="5.80191">
        <ele>512.52</ele>
        <time>2013-07-25T07:53:30Z</time>
      </trkpt>
      <trkpt lat="46.64175" lon="5.80206">
        <ele>512.52</ele>
        <time>2013-07-25T07:53:41Z</time>
      </trkpt>
      <trkpt lat="46.64138" lon="5.80218">
        <ele>512.52</ele>
        <time>2013-07-25T07:53:51Z</time>
      </trkpt>
      <trkpt lat="46.64112" lon="5.80231">
        <ele>512.04</ele>
        <time>2013-07-25T07:54:01Z</time>
      </trkpt>
      <trkpt lat="46.64089" lon="5.80239">
        <ele>512.52</ele>
        <time>2013-07-25T07:54:11Z</time>
      </trkpt>
      <trkpt lat="46.64067" lon="5.80246">
        <ele>512.04</ele>
        <time>2013-07-25T07:54:22Z</time>
      </trkpt>
      <trkpt lat="46.64055" lon="5.80249">
        <ele>512.52</ele>
        <time>2013-07-25T07:54:27Z</time>
      </trkpt>
      <trkpt lat="46.64049" lon="5.80252">
        <ele>512.52</ele>
        <time>2013-07-25T07:54:31Z</time>
      </trkpt>
      <trkpt lat="46.64017" lon="5.80269">
        <ele>512.52</ele>
        <time>2013-07-25T07:54:45Z</time>
      </trkpt>
      <trkpt lat="46.64004" lon="5.80277">
        <ele>512.52</ele>
        <time>2013-07-25T07:54:49Z</time>
      </trkpt>
      <trkpt lat="46.63969" lon="5.80296">
        <ele>512.52</ele>
        <time>2013-07-25T07:55:02Z</time>
      </trkpt>
      <trkpt lat="46.63962" lon="5.80299">
        <ele>512.52</ele>
        <time>2013-07-25T07:55:06Z</time>
      </trkpt>
      <trkpt lat="46.63933" lon="5.80321">
        <ele>512.52</ele>
        <time>2013-07-25T07:55:17Z</time>
      </trkpt>
      <trkpt lat="46.63929" lon="5.80324">
        <ele>512.52</ele>
        <time>2013-07-25T07:55:19Z</time>
      </trkpt>
      <trkpt lat="46.63892" lon="5.80337">
        <ele>513</ele>
        <time>2013-07-25T07:55:31Z</time>
      </trkpt>
      <trkpt lat="46.63854" lon="5.80357">
        <ele>513.48</ele>
        <time>2013-07-25T07:55:45Z</time>
      </trkpt>
      <trkpt lat="46.63824" lon="5.80367">
        <ele>513.96</ele>
        <time>2013-07-25T07:55:55Z</time>
      </trkpt>
      <trkpt lat="46.63802" lon="5.8038">
        <ele>515.4</ele>
        <time>2013-07-25T07:56:06Z</time>
      </trkpt>
      <trkpt lat="46.63779" lon="5.80387">
        <ele>516.85</ele>
        <time>2013-07-25T07:56:16Z</time>
      </trkpt>
      <trkpt lat="46.63753" lon="5.80392">
        <ele>515.88</ele>
        <time>2013-07-25T07:56:25Z</time>
      </trkpt>
      <trkpt lat="46.63727" lon="5.80409">
        <ele>516.37</ele>
        <time>2013-07-25T07:56:35Z</time>
      </trkpt>
      <trkpt lat="46.63701" lon="5.80446">
        <ele>514.92</ele>
        <time>2013-07-25T07:56:45Z</time>
      </trkpt>
      <trkpt lat="46.63667" lon="5.80485">
        <ele>515.88</ele>
        <time>2013-07-25T07:56:56Z</time>
      </trkpt>
      <trkpt lat="46.63648" lon="5.80507">
        <ele>517.33</ele>
        <time>2013-07-25T07:57:07Z</time>
      </trkpt>
      <trkpt lat="46.63619" lon="5.8053">
        <ele>519.73</ele>
        <time>2013-07-25T07:57:19Z</time>
      </trkpt>
      <trkpt lat="46.63596" lon="5.80555">
        <ele>521.17</ele>
        <time>2013-07-25T07:57:29Z</time>
      </trkpt>
      <trkpt lat="46.63592" lon="5.80557">
        <ele>521.65</ele>
        <time>2013-07-25T07:57:31Z</time>
      </trkpt>
      <trkpt lat="46.63576" lon="5.80574">
        <ele>522.61</ele>
        <time>2013-07-25T07:57:39Z</time>
      </trkpt>
      <trkpt lat="46.63573" lon="5.80578">
        <ele>523.09</ele>
        <time>2013-07-25T07:57:41Z</time>
      </trkpt>
      <trkpt lat="46.63554" lon="5.80605">
        <ele>523.58</ele>
        <time>2013-07-25T07:57:52Z</time>
      </trkpt>
      <trkpt lat="46.63538" lon="5.80628">
        <ele>525.5</ele>
        <time>2013-07-25T07:58:03Z</time>
      </trkpt>
      <trkpt lat="46.63511" lon="5.8066">
        <ele>526.94</ele>
        <time>2013-07-25T07:58:16Z</time>
      </trkpt>
      <trkpt lat="46.63499" lon="5.807">
        <ele>525.98</ele>
        <time>2013-07-25T07:58:28Z</time>
      </trkpt>
      <trkpt lat="46.635" lon="5.80706">
        <ele>525.02</ele>
        <time>2013-07-25T07:58:29Z</time>
      </trkpt>
      <trkpt lat="46.63501" lon="5.80734">
        <ele>523.09</ele>
        <time>2013-07-25T07:58:32Z</time>
      </trkpt>
      <trkpt lat="46.63491" lon="5.8079">
        <ele>519.25</ele>
        <time>2013-07-25T07:58:38Z</time>
      </trkpt>
      <trkpt lat="46.63465" lon="5.80847">
        <ele>519.25</ele>
        <time>2013-07-25T07:58:50Z</time>
      </trkpt>
      <trkpt lat="46.63459" lon="5.80869">
        <ele>518.77</ele>
        <time>2013-07-25T07:58:54Z</time>
      </trkpt>
      <trkpt lat="46.63452" lon="5.80897">
        <ele>517.33</ele>
        <time>2013-07-25T07:58:58Z</time>
      </trkpt>
      <trkpt lat="46.63444" lon="5.8092">
        <ele>516.85</ele>
        <time>2013-07-25T07:59:01Z</time>
      </trkpt>
      <trkpt lat="46.63425" lon="5.80959">
        <ele>514.92</ele>
        <time>2013-07-25T07:59:09Z</time>
      </trkpt>
      <trkpt lat="46.63421" lon="5.80973">
        <ele>514.92</ele>
        <time>2013-07-25T07:59:13Z</time>
      </trkpt>
      <trkpt lat="46.63402" lon="5.81017">
        <ele>515.4</ele>
        <time>2013-07-25T07:59:26Z</time>
      </trkpt>
      <trkpt lat="46.63385" lon="5.81066">
        <ele>515.4</ele>
        <time>2013-07-25T07:59:38Z</time>
      </trkpt>
      <trkpt lat="46.63372" lon="5.81118">
        <ele>515.88</ele>
        <time>2013-07-25T07:59:48Z</time>
      </trkpt>
      <trkpt lat="46.63389" lon="5.81193">
        <ele>515.88</ele>
        <time>2013-07-25T08:00:04Z</time>
      </trkpt>
      <trkpt lat="46.63389" lon="5.81196">
        <ele>515.88</ele>
        <time>2013-07-25T08:00:05Z</time>
      </trkpt>
      <trkpt lat="46.63396" lon="5.8121">
        <ele>515.88</ele>
        <time>2013-07-25T08:00:10Z</time>
      </trkpt>
      <trkpt lat="46.63403" lon="5.81254">
        <ele>515.4</ele>
        <time>2013-07-25T08:00:23Z</time>
      </trkpt>
      <trkpt lat="46.63412" lon="5.8128">
        <ele>515.88</ele>
        <time>2013-07-25T08:00:34Z</time>
      </trkpt>
      <trkpt lat="46.63426" lon="5.8129">
        <ele>516.85</ele>
        <time>2013-07-25T08:00:41Z</time>
      </trkpt>
      <trkpt lat="46.63458" lon="5.81308">
        <ele>518.29</ele>
        <time>2013-07-25T08:00:56Z</time>
      </trkpt>
      <trkpt lat="46.63486" lon="5.81326">
        <ele>519.25</ele>
        <time>2013-07-25T08:01:09Z</time>
      </trkpt>
      <trkpt lat="46.63529" lon="5.81355">
        <ele>519.73</ele>
        <time>2013-07-25T08:01:27Z</time>
      </trkpt>
      <trkpt lat="46.63564" lon="5.81384">
        <ele>520.21</ele>
        <time>2013-07-25T08:01:42Z</time>
      </trkpt>
      <trkpt lat="46.63595" lon="5.81426">
        <ele>521.65</ele>
        <time>2013-07-25T08:01:58Z</time>
      </trkpt>
      <trkpt lat="46.63608" lon="5.81452">
        <ele>521.65</ele>
        <time>2013-07-25T08:02:09Z</time>
      </trkpt>
      <trkpt lat="46.63609" lon="5.81455">
        <ele>522.61</ele>
        <time>2013-07-25T08:02:19Z</time>
      </trkpt>
      <trkpt lat="46.63608" lon="5.81461">
        <ele>522.61</ele>
        <time>2013-07-25T08:02:21Z</time>
      </trkpt>
      <trkpt lat="46.63612" lon="5.81468">
        <ele>523.09</ele>
        <time>2013-07-25T08:02:36Z</time>
      </trkpt>
      <trkpt lat="46.63613" lon="5.81473">
        <ele>522.61</ele>
        <time>2013-07-25T08:02:54Z</time>
      </trkpt>
      <trkpt lat="46.63608" lon="5.81484">
        <ele>523.09</ele>
        <time>2013-07-25T08:03:08Z</time>
      </trkpt>
      <trkpt lat="46.63604" lon="5.81486">
        <ele>523.09</ele>
        <time>2013-07-25T08:03:30Z</time>
      </trkpt>
      <trkpt lat="46.63609" lon="5.81493">
        <ele>523.09</ele>
        <time>2013-07-25T08:04:06Z</time>
      </trkpt>
      <trkpt lat="46.63604" lon="5.81493">
        <ele>523.58</ele>
        <time>2013-07-25T08:04:46Z</time>
      </trkpt>
      <trkpt lat="46.63603" lon="5.81494">
        <ele>524.06</ele>
        <time>2013-07-25T08:05:22Z</time>
      </trkpt>
      <trkpt lat="46.63604" lon="5.81493">
        <ele>524.06</ele>
        <time>2013-07-25T08:06:00Z</time>
      </trkpt>
      <trkpt lat="46.636" lon="5.81486">
        <ele>524.54</ele>
        <time>2013-07-25T08:06:39Z</time>
      </trkpt>
      <trkpt lat="46.636" lon="5.81488">
        <ele>524.54</ele>
        <time>2013-07-25T08:06:48Z</time>
      </trkpt>
      <trkpt lat="46.63596" lon="5.81511">
        <ele>524.54</ele>
        <time>2013-07-25T08:06:57Z</time>
      </trkpt>
      <trkpt lat="46.63595" lon="5.81524">
        <ele>525.02</ele>
        <time>2013-07-25T08:07:01Z</time>
      </trkpt>
      <trkpt lat="46.63587" lon="5.81559">
        <ele>525.5</ele>
        <time>2013-07-25T08:07:11Z</time>
      </trkpt>
      <trkpt lat="46.63585" lon="5.81565">
        <ele>525.98</ele>
        <time>2013-07-25T08:07:13Z</time>
      </trkpt>
      <trkpt lat="46.63575" lon="5.81583">
        <ele>527.42</ele>
        <time>2013-07-25T08:07:20Z</time>
      </trkpt>
      <trkpt lat="46.63565" lon="5.81592">
        <ele>528.38</ele>
        <time>2013-07-25T08:07:27Z</time>
      </trkpt>
      <trkpt lat="46.6355" lon="5.8161">
        <ele>529.82</ele>
        <time>2013-07-25T08:07:38Z</time>
      </trkpt>
      <trkpt lat="46.63547" lon="5.81622">
        <ele>530.79</ele>
        <time>2013-07-25T08:07:41Z</time>
      </trkpt>
      <trkpt lat="46.63541" lon="5.81638">
        <ele>530.79</ele>
        <time>2013-07-25T08:07:46Z</time>
      </trkpt>
      <trkpt lat="46.6354" lon="5.81654">
        <ele>532.23</ele>
        <time>2013-07-25T08:07:54Z</time>
      </trkpt>
      <trkpt lat="46.63544" lon="5.81688">
        <ele>535.11</ele>
        <time>2013-07-25T08:08:11Z</time>
      </trkpt>
      <trkpt lat="46.63544" lon="5.8169">
        <ele>535.59</ele>
        <time>2013-07-25T08:08:12Z</time>
      </trkpt>
      <trkpt lat="46.63543" lon="5.817">
        <ele>536.55</ele>
        <time>2013-07-25T08:08:18Z</time>
      </trkpt>
      <trkpt lat="46.6354" lon="5.81709">
        <ele>537.51</ele>
        <time>2013-07-25T08:08:22Z</time>
      </trkpt>
      <trkpt lat="46.63527" lon="5.8173">
        <ele>538.96</ele>
        <time>2013-07-25T08:08:35Z</time>
      </trkpt>
      <trkpt lat="46.63514" lon="5.8175">
        <ele>541.36</ele>
        <time>2013-07-25T08:08:51Z</time>
      </trkpt>
      <trkpt lat="46.63512" lon="5.81752">
        <ele>541.36</ele>
        <time>2013-07-25T08:08:53Z</time>
      </trkpt>
      <trkpt lat="46.63496" lon="5.8177">
        <ele>544.24</ele>
        <time>2013-07-25T08:09:05Z</time>
      </trkpt>
      <trkpt lat="46.63491" lon="5.81779">
        <ele>545.69</ele>
        <time>2013-07-25T08:09:11Z</time>
      </trkpt>
      <trkpt lat="46.63485" lon="5.81787">
        <ele>546.65</ele>
        <time>2013-07-25T08:09:18Z</time>
      </trkpt>
      <trkpt lat="46.63482" lon="5.81788">
        <ele>547.61</ele>
        <time>2013-07-25T08:09:20Z</time>
      </trkpt>
      <trkpt lat="46.63477" lon="5.81794">
        <ele>549.05</ele>
        <time>2013-07-25T08:09:25Z</time>
      </trkpt>
      <trkpt lat="46.63474" lon="5.81797">
        <ele>549.05</ele>
        <time>2013-07-25T08:09:28Z</time>
      </trkpt>
      <trkpt lat="46.6346" lon="5.81802">
        <ele>552.9</ele>
        <time>2013-07-25T08:09:40Z</time>
      </trkpt>
      <trkpt lat="46.63438" lon="5.81808">
        <ele>555.3</ele>
        <time>2013-07-25T08:09:52Z</time>
      </trkpt>
      <trkpt lat="46.63419" lon="5.81814">
        <ele>558.18</ele>
        <time>2013-07-25T08:10:04Z</time>
      </trkpt>
      <trkpt lat="46.63414" lon="5.81817">
        <ele>558.18</ele>
        <time>2013-07-25T08:10:28Z</time>
      </trkpt>
      <trkpt lat="46.63409" lon="5.81817">
        <ele>559.14</ele>
        <time>2013-07-25T08:10:56Z</time>
      </trkpt>
      <trkpt lat="46.63408" lon="5.81819">
        <ele>558.18</ele>
        <time>2013-07-25T08:11:31Z</time>
      </trkpt>
      <trkpt lat="46.63401" lon="5.81818">
        <ele>561.07</ele>
        <time>2013-07-25T08:11:51Z</time>
      </trkpt>
      <trkpt lat="46.63387" lon="5.81823">
        <ele>562.99</ele>
        <time>2013-07-25T08:12:02Z</time>
      </trkpt>
      <trkpt lat="46.63383" lon="5.81823">
        <ele>563.95</ele>
        <time>2013-07-25T08:12:05Z</time>
      </trkpt>
      <trkpt lat="46.63375" lon="5.81824">
        <ele>565.39</ele>
        <time>2013-07-25T08:12:10Z</time>
      </trkpt>
      <trkpt lat="46.63356" lon="5.81816">
        <ele>567.8</ele>
        <time>2013-07-25T08:12:22Z</time>
      </trkpt>
      <trkpt lat="46.63349" lon="5.81817">
        <ele>568.28</ele>
        <time>2013-07-25T08:12:26Z</time>
      </trkpt>
      <trkpt lat="46.63329" lon="5.81819">
        <ele>570.68</ele>
        <time>2013-07-25T08:12:39Z</time>
      </trkpt>
      <trkpt lat="46.63315" lon="5.81826">
        <ele>572.6</ele>
        <time>2013-07-25T08:12:48Z</time>
      </trkpt>
      <trkpt lat="46.63303" lon="5.81836">
        <ele>574.04</ele>
        <time>2013-07-25T08:13:02Z</time>
      </trkpt>
      <trkpt lat="46.63292" lon="5.81852">
        <ele>576.45</ele>
        <time>2013-07-25T08:13:18Z</time>
      </trkpt>
      <trkpt lat="46.63286" lon="5.81861">
        <ele>578.37</ele>
        <time>2013-07-25T08:13:32Z</time>
      </trkpt>
      <trkpt lat="46.63279" lon="5.81868">
        <ele>579.81</ele>
        <time>2013-07-25T08:13:50Z</time>
      </trkpt>
      <trkpt lat="46.63271" lon="5.81882">
        <ele>582.7</ele>
        <time>2013-07-25T08:14:03Z</time>
      </trkpt>
      <trkpt lat="46.63266" lon="5.81902">
        <ele>585.1</ele>
        <time>2013-07-25T08:14:17Z</time>
      </trkpt>
      <trkpt lat="46.63269" lon="5.81909">
        <ele>585.58</ele>
        <time>2013-07-25T08:14:30Z</time>
      </trkpt>
      <trkpt lat="46.63267" lon="5.81908">
        <ele>586.06</ele>
        <time>2013-07-25T08:15:02Z</time>
      </trkpt>
      <trkpt lat="46.63272" lon="5.81905">
        <ele>586.06</ele>
        <time>2013-07-25T08:15:32Z</time>
      </trkpt>
      <trkpt lat="46.63273" lon="5.81903">
        <ele>586.54</ele>
        <time>2013-07-25T08:16:07Z</time>
      </trkpt>
      <trkpt lat="46.63269" lon="5.81908">
        <ele>586.54</ele>
        <time>2013-07-25T08:16:47Z</time>
      </trkpt>
      <trkpt lat="46.6327" lon="5.81914">
        <ele>587.02</ele>
        <time>2013-07-25T08:17:15Z</time>
      </trkpt>
      <trkpt lat="46.63269" lon="5.81918">
        <ele>587.5</ele>
        <time>2013-07-25T08:17:49Z</time>
      </trkpt>
      <trkpt lat="46.63267" lon="5.8192">
        <ele>587.02</ele>
        <time>2013-07-25T08:18:16Z</time>
      </trkpt>
      <trkpt lat="46.6327" lon="5.81917">
        <ele>587.5</ele>
        <time>2013-07-25T08:18:46Z</time>
      </trkpt>
      <trkpt lat="46.6327" lon="5.81912">
        <ele>587.98</ele>
        <time>2013-07-25T08:19:16Z</time>
      </trkpt>
      <trkpt lat="46.63267" lon="5.81915">
        <ele>587.02</ele>
        <time>2013-07-25T08:19:45Z</time>
      </trkpt>
      <trkpt lat="46.63268" lon="5.81915">
        <ele>587.98</ele>
        <time>2013-07-25T08:20:22Z</time>
      </trkpt>
      <trkpt lat="46.63273" lon="5.81915">
        <ele>588.46</ele>
        <time>2013-07-25T08:20:57Z</time>
      </trkpt>
      <trkpt lat="46.63273" lon="5.81908">
        <ele>588.46</ele>
        <time>2013-07-25T08:21:27Z</time>
      </trkpt>
      <trkpt lat="46.6327" lon="5.81905">
        <ele>588.95</ele>
        <time>2013-07-25T08:21:58Z</time>
      </trkpt>
      <trkpt lat="46.63265" lon="5.81911">
        <ele>589.43</ele>
        <time>2013-07-25T08:22:31Z</time>
      </trkpt>
      <trkpt lat="46.63271" lon="5.81916">
        <ele>589.91</ele>
        <time>2013-07-25T08:23:10Z</time>
      </trkpt>
      <trkpt lat="46.6327" lon="5.81907">
        <ele>590.39</ele>
        <time>2013-07-25T08:23:45Z</time>
      </trkpt>
      <trkpt lat="46.63269" lon="5.81897">
        <ele>590.39</ele>
        <time>2013-07-25T08:24:12Z</time>
      </trkpt>
      <trkpt lat="46.63264" lon="5.81891">
        <ele>590.87</ele>
        <time>2013-07-25T08:24:52Z</time>
      </trkpt>
      <trkpt lat="46.63274" lon="5.81893">
        <ele>591.83</ele>
        <time>2013-07-25T08:25:21Z</time>
      </trkpt>
      <trkpt lat="46.63266" lon="5.81887">
        <ele>591.35</ele>
        <time>2013-07-25T08:25:46Z</time>
      </trkpt>
      <trkpt lat="46.63263" lon="5.81882">
        <ele>591.83</ele>
        <time>2013-07-25T08:26:20Z</time>
      </trkpt>
      <trkpt lat="46.63267" lon="5.81877">
        <ele>592.31</ele>
        <time>2013-07-25T08:26:53Z</time>
      </trkpt>
      <trkpt lat="46.63271" lon="5.81911">
        <ele>592.79</ele>
        <time>2013-07-25T08:27:26Z</time>
      </trkpt>
      <trkpt lat="46.63271" lon="5.81904">
        <ele>593.27</ele>
        <time>2013-07-25T08:28:08Z</time>
      </trkpt>
      <trkpt lat="46.63274" lon="5.8191">
        <ele>593.27</ele>
        <time>2013-07-25T08:28:46Z</time>
      </trkpt>
      <trkpt lat="46.63268" lon="5.81907">
        <ele>593.27</ele>
        <time>2013-07-25T08:29:26Z</time>
      </trkpt>
      <trkpt lat="46.63264" lon="5.81909">
        <ele>593.75</ele>
        <time>2013-07-25T08:29:58Z</time>
      </trkpt>
      <trkpt lat="46.63265" lon="5.81911">
        <ele>593.27</ele>
        <time>2013-07-25T08:30:26Z</time>
      </trkpt>
      <trkpt lat="46.63265" lon="5.81914">
        <ele>593.27</ele>
        <time>2013-07-25T08:30:58Z</time>
      </trkpt>
      <trkpt lat="46.63271" lon="5.81906">
        <ele>592.79</ele>
        <time>2013-07-25T08:31:32Z</time>
      </trkpt>
      <trkpt lat="46.63268" lon="5.81912">
        <ele>592.31</ele>
        <time>2013-07-25T08:32:11Z</time>
      </trkpt>
      <trkpt lat="46.63264" lon="5.81916">
        <ele>592.79</ele>
        <time>2013-07-25T08:32:33Z</time>
      </trkpt>
      <trkpt lat="46.63263" lon="5.81914">
        <ele>593.27</ele>
        <time>2013-07-25T08:32:58Z</time>
      </trkpt>
      <trkpt lat="46.63264" lon="5.81923">
        <ele>593.27</ele>
        <time>2013-07-25T08:33:10Z</time>
      </trkpt>
      <trkpt lat="46.6326" lon="5.8194">
        <ele>595.67</ele>
        <time>2013-07-25T08:33:23Z</time>
      </trkpt>
      <trkpt lat="46.63258" lon="5.8195">
        <ele>596.64</ele>
        <time>2013-07-25T08:33:29Z</time>
      </trkpt>
      <trkpt lat="46.63257" lon="5.81956">
        <ele>597.6</ele>
        <time>2013-07-25T08:33:32Z</time>
      </trkpt>
      <trkpt lat="46.63255" lon="5.8197">
        <ele>599.52</ele>
        <time>2013-07-25T08:33:43Z</time>
      </trkpt>
      <trkpt lat="46.63254" lon="5.81977">
        <ele>600</ele>
        <time>2013-07-25T08:33:46Z</time>
      </trkpt>
      <trkpt lat="46.63251" lon="5.81992">
        <ele>601.44</ele>
        <time>2013-07-25T08:33:52Z</time>
      </trkpt>
      <trkpt lat="46.63242" lon="5.82017">
        <ele>603.36</ele>
        <time>2013-07-25T08:34:05Z</time>
      </trkpt>
      <trkpt lat="46.63239" lon="5.82023">
        <ele>603.36</ele>
        <time>2013-07-25T08:34:08Z</time>
      </trkpt>
      <trkpt lat="46.6322" lon="5.82039">
        <ele>607.21</ele>
        <time>2013-07-25T08:34:21Z</time>
      </trkpt>
      <trkpt lat="46.6321" lon="5.8204">
        <ele>608.17</ele>
        <time>2013-07-25T08:34:35Z</time>
      </trkpt>
      <trkpt lat="46.63207" lon="5.82037">
        <ele>608.17</ele>
        <time>2013-07-25T08:34:57Z</time>
      </trkpt>
      <trkpt lat="46.63207" lon="5.82038">
        <ele>608.65</ele>
        <time>2013-07-25T08:35:09Z</time>
      </trkpt>
      <trkpt lat="46.63208" lon="5.82038">
        <ele>608.17</ele>
        <time>2013-07-25T08:35:21Z</time>
      </trkpt>
      <trkpt lat="46.63211" lon="5.82042">
        <ele>608.65</ele>
        <time>2013-07-25T08:35:46Z</time>
      </trkpt>
      <trkpt lat="46.63213" lon="5.82043">
        <ele>608.65</ele>
        <time>2013-07-25T08:36:17Z</time>
      </trkpt>
      <trkpt lat="46.63212" lon="5.82044">
        <ele>609.13</ele>
        <time>2013-07-25T08:36:47Z</time>
      </trkpt>
      <trkpt lat="46.63211" lon="5.82037">
        <ele>609.13</ele>
        <time>2013-07-25T08:37:17Z</time>
      </trkpt>
      <trkpt lat="46.63207" lon="5.82027">
        <ele>610.09</ele>
        <time>2013-07-25T08:37:44Z</time>
      </trkpt>
      <trkpt lat="46.63208" lon="5.82032">
        <ele>610.09</ele>
        <time>2013-07-25T08:38:07Z</time>
      </trkpt>
      <trkpt lat="46.63211" lon="5.82037">
        <ele>610.09</ele>
        <time>2013-07-25T08:38:35Z</time>
      </trkpt>
      <trkpt lat="46.63207" lon="5.82039">
        <ele>610.09</ele>
        <time>2013-07-25T08:39:01Z</time>
      </trkpt>
      <trkpt lat="46.63209" lon="5.82036">
        <ele>610.09</ele>
        <time>2013-07-25T08:39:34Z</time>
      </trkpt>
      <trkpt lat="46.63219" lon="5.82039">
        <ele>610.57</ele>
        <time>2013-07-25T08:40:13Z</time>
      </trkpt>
      <trkpt lat="46.63219" lon="5.82038">
        <ele>610.09</ele>
        <time>2013-07-25T08:40:19Z</time>
      </trkpt>
      <trkpt lat="46.63229" lon="5.82044">
        <ele>609.13</ele>
        <time>2013-07-25T08:40:24Z</time>
      </trkpt>
      <trkpt lat="46.63256" lon="5.82059">
        <ele>610.57</ele>
        <time>2013-07-25T08:40:34Z</time>
      </trkpt>
      <trkpt lat="46.63281" lon="5.82052">
        <ele>612.02</ele>
        <time>2013-07-25T08:40:46Z</time>
      </trkpt>
      <trkpt lat="46.63313" lon="5.82046">
        <ele>609.61</ele>
        <time>2013-07-25T08:40:58Z</time>
      </trkpt>
      <trkpt lat="46.63353" lon="5.82044">
        <ele>608.65</ele>
        <time>2013-07-25T08:41:07Z</time>
      </trkpt>
      <trkpt lat="46.63391" lon="5.82034">
        <ele>606.73</ele>
        <time>2013-07-25T08:41:14Z</time>
      </trkpt>
      <trkpt lat="46.63429" lon="5.82008">
        <ele>604.33</ele>
        <time>2013-07-25T08:41:20Z</time>
      </trkpt>
      <trkpt lat="46.63473" lon="5.81984">
        <ele>604.81</ele>
        <time>2013-07-25T08:41:29Z</time>
      </trkpt>
      <trkpt lat="46.63498" lon="5.81968">
        <ele>606.73</ele>
        <time>2013-07-25T08:41:42Z</time>
      </trkpt>
      <trkpt lat="46.63508" lon="5.81965">
        <ele>608.65</ele>
        <time>2013-07-25T08:41:49Z</time>
      </trkpt>
      <trkpt lat="46.63525" lon="5.81955">
        <ele>612.02</ele>
        <time>2013-07-25T08:42:01Z</time>
      </trkpt>
      <trkpt lat="46.63541" lon="5.81949">
        <ele>615.38</ele>
        <time>2013-07-25T08:42:12Z</time>
      </trkpt>
      <trkpt lat="46.63543" lon="5.81947">
        <ele>615.38</ele>
        <time>2013-07-25T08:42:13Z</time>
      </trkpt>
      <trkpt lat="46.63551" lon="5.81939">
        <ele>616.82</ele>
        <time>2013-07-25T08:42:19Z</time>
      </trkpt>
      <trkpt lat="46.63565" lon="5.81923">
        <ele>619.23</ele>
        <time>2013-07-25T08:42:32Z</time>
      </trkpt>
      <trkpt lat="46.63582" lon="5.81908">
        <ele>621.15</ele>
        <time>2013-07-25T08:42:48Z</time>
      </trkpt>
      <trkpt lat="46.63603" lon="5.81888">
        <ele>623.55</ele>
        <time>2013-07-25T08:43:06Z</time>
      </trkpt>
      <trkpt lat="46.63623" lon="5.81881">
        <ele>624.03</ele>
        <time>2013-07-25T08:43:19Z</time>
      </trkpt>
      <trkpt lat="46.63651" lon="5.81873">
        <ele>621.63</ele>
        <time>2013-07-25T08:43:30Z</time>
      </trkpt>
      <trkpt lat="46.63659" lon="5.81871">
        <ele>620.67</ele>
        <time>2013-07-25T08:43:34Z</time>
      </trkpt>
      <trkpt lat="46.63673" lon="5.81878">
        <ele>620.67</ele>
        <time>2013-07-25T08:43:41Z</time>
      </trkpt>
      <trkpt lat="46.6369" lon="5.8189">
        <ele>621.15</ele>
        <time>2013-07-25T08:43:51Z</time>
      </trkpt>
      <trkpt lat="46.63705" lon="5.81897">
        <ele>621.15</ele>
        <time>2013-07-25T08:43:58Z</time>
      </trkpt>
      <trkpt lat="46.63714" lon="5.81896">
        <ele>622.59</ele>
        <time>2013-07-25T08:44:03Z</time>
      </trkpt>
      <trkpt lat="46.6372" lon="5.81894">
        <ele>622.59</ele>
        <time>2013-07-25T08:44:08Z</time>
      </trkpt>
      <trkpt lat="46.6374" lon="5.81886">
        <ele>622.11</ele>
        <time>2013-07-25T08:44:17Z</time>
      </trkpt>
      <trkpt lat="46.63749" lon="5.81883">
        <ele>622.59</ele>
        <time>2013-07-25T08:44:21Z</time>
      </trkpt>
      <trkpt lat="46.63776" lon="5.81882">
        <ele>623.07</ele>
        <time>2013-07-25T08:44:33Z</time>
      </trkpt>
      <trkpt lat="46.63789" lon="5.81882">
        <ele>626.44</ele>
        <time>2013-07-25T08:44:42Z</time>
      </trkpt>
      <trkpt lat="46.63791" lon="5.81882">
        <ele>626.44</ele>
        <time>2013-07-25T08:44:43Z</time>
      </trkpt>
      <trkpt lat="46.63809" lon="5.81874">
        <ele>628.84</ele>
        <time>2013-07-25T08:44:57Z</time>
      </trkpt>
      <trkpt lat="46.63832" lon="5.81869">
        <ele>628.84</ele>
        <time>2013-07-25T08:45:09Z</time>
      </trkpt>
      <trkpt lat="46.63854" lon="5.81878">
        <ele>629.32</ele>
        <time>2013-07-25T08:45:19Z</time>
      </trkpt>
      <trkpt lat="46.63882" lon="5.81889">
        <ele>630.28</ele>
        <time>2013-07-25T08:45:29Z</time>
      </trkpt>
      <trkpt lat="46.63924" lon="5.81899">
        <ele>629.32</ele>
        <time>2013-07-25T08:45:40Z</time>
      </trkpt>
      <trkpt lat="46.63969" lon="5.81889">
        <ele>627.88</ele>
        <time>2013-07-25T08:45:51Z</time>
      </trkpt>
      <trkpt lat="46.63988" lon="5.81893">
        <ele>627.4</ele>
        <time>2013-07-25T08:45:55Z</time>
      </trkpt>
      <trkpt lat="46.64023" lon="5.819">
        <ele>628.84</ele>
        <time>2013-07-25T08:46:05Z</time>
      </trkpt>
      <trkpt lat="46.64036" lon="5.81911">
        <ele>629.32</ele>
        <time>2013-07-25T08:46:12Z</time>
      </trkpt>
      <trkpt lat="46.64047" lon="5.81924">
        <ele>630.76</ele>
        <time>2013-07-25T08:46:20Z</time>
      </trkpt>
      <trkpt lat="46.64059" lon="5.81937">
        <ele>632.2</ele>
        <time>2013-07-25T08:46:30Z</time>
      </trkpt>
      <trkpt lat="46.64073" lon="5.81965">
        <ele>634.61</ele>
        <time>2013-07-25T08:46:42Z</time>
      </trkpt>
      <trkpt lat="46.64088" lon="5.81979">
        <ele>637.49</ele>
        <time>2013-07-25T08:46:51Z</time>
      </trkpt>
      <trkpt lat="46.64106" lon="5.81996">
        <ele>639.41</ele>
        <time>2013-07-25T08:47:02Z</time>
      </trkpt>
      <trkpt lat="46.64118" lon="5.82006">
        <ele>640.86</ele>
        <time>2013-07-25T08:47:10Z</time>
      </trkpt>
      <trkpt lat="46.64138" lon="5.8202">
        <ele>641.82</ele>
        <time>2013-07-25T08:47:22Z</time>
      </trkpt>
      <trkpt lat="46.6416" lon="5.82037">
        <ele>642.3</ele>
        <time>2013-07-25T08:47:35Z</time>
      </trkpt>
      <trkpt lat="46.64165" lon="5.8204">
        <ele>641.82</ele>
        <time>2013-07-25T08:47:37Z</time>
      </trkpt>
      <trkpt lat="46.64197" lon="5.82061">
        <ele>637.97</ele>
        <time>2013-07-25T08:47:45Z</time>
      </trkpt>
      <trkpt lat="46.64203" lon="5.82063">
        <ele>636.53</ele>
        <time>2013-07-25T08:47:46Z</time>
      </trkpt>
      <trkpt lat="46.64214" lon="5.82068">
        <ele>634.61</ele>
        <time>2013-07-25T08:47:48Z</time>
      </trkpt>
      <trkpt lat="46.64227" lon="5.82071">
        <ele>634.13</ele>
        <time>2013-07-25T08:47:50Z</time>
      </trkpt>
      <trkpt lat="46.64248" lon="5.8207">
        <ele>630.76</ele>
        <time>2013-07-25T08:47:53Z</time>
      </trkpt>
      <trkpt lat="46.64282" lon="5.82078">
        <ele>627.88</ele>
        <time>2013-07-25T08:47:57Z</time>
      </trkpt>
      <trkpt lat="46.64335" lon="5.82076">
        <ele>624.99</ele>
        <time>2013-07-25T08:48:03Z</time>
      </trkpt>
      <trkpt lat="46.64393" lon="5.82064">
        <ele>622.59</ele>
        <time>2013-07-25T08:48:10Z</time>
      </trkpt>
      <trkpt lat="46.64418" lon="5.8207">
        <ele>623.07</ele>
        <time>2013-07-25T08:48:14Z</time>
      </trkpt>
      <trkpt lat="46.64455" lon="5.82088">
        <ele>623.55</ele>
        <time>2013-07-25T08:48:26Z</time>
      </trkpt>
      <trkpt lat="46.64504" lon="5.821">
        <ele>625.47</ele>
        <time>2013-07-25T08:48:40Z</time>
      </trkpt>
      <trkpt lat="46.64528" lon="5.82119">
        <ele>627.4</ele>
        <time>2013-07-25T08:48:52Z</time>
      </trkpt>
      <trkpt lat="46.64547" lon="5.82149">
        <ele>630.76</ele>
        <time>2013-07-25T08:49:07Z</time>
      </trkpt>
      <trkpt lat="46.64548" lon="5.82151">
        <ele>630.28</ele>
        <time>2013-07-25T08:49:08Z</time>
      </trkpt>
      <trkpt lat="46.64551" lon="5.82161">
        <ele>630.28</ele>
        <time>2013-07-25T08:49:12Z</time>
      </trkpt>
      <trkpt lat="46.64581" lon="5.82186">
        <ele>631.72</ele>
        <time>2013-07-25T08:49:27Z</time>
      </trkpt>
      <trkpt lat="46.64605" lon="5.8221">
        <ele>633.17</ele>
        <time>2013-07-25T08:49:39Z</time>
      </trkpt>
      <trkpt lat="46.64616" lon="5.8223">
        <ele>633.17</ele>
        <time>2013-07-25T08:49:47Z</time>
      </trkpt>
      <trkpt lat="46.64643" lon="5.82267">
        <ele>631.72</ele>
        <time>2013-07-25T08:49:59Z</time>
      </trkpt>
      <trkpt lat="46.64643" lon="5.82269">
        <ele>632.2</ele>
        <time>2013-07-25T08:50:00Z</time>
      </trkpt>
      <trkpt lat="46.6462" lon="5.8229">
        <ele>632.68</ele>
        <time>2013-07-25T08:50:14Z</time>
      </trkpt>
      <trkpt lat="46.64589" lon="5.82309">
        <ele>633.65</ele>
        <time>2013-07-25T08:50:29Z</time>
      </trkpt>
      <trkpt lat="46.64573" lon="5.82317">
        <ele>634.61</ele>
        <time>2013-07-25T08:50:36Z</time>
      </trkpt>
      <trkpt lat="46.64553" lon="5.8233">
        <ele>634.13</ele>
        <time>2013-07-25T08:50:48Z</time>
      </trkpt>
      <trkpt lat="46.64553" lon="5.82328">
        <ele>634.13</ele>
        <time>2013-07-25T08:50:59Z</time>
      </trkpt>
      <trkpt lat="46.64552" lon="5.82325">
        <ele>634.13</ele>
        <time>2013-07-25T08:51:21Z</time>
      </trkpt>
      <trkpt lat="46.64552" lon="5.82323">
        <ele>634.13</ele>
        <time>2013-07-25T08:51:47Z</time>
      </trkpt>
      <trkpt lat="46.64552" lon="5.82323">
        <ele>633.65</ele>
        <time>2013-07-25T08:52:17Z</time>
      </trkpt>
      <trkpt lat="46.64551" lon="5.8232">
        <ele>633.65</ele>
        <time>2013-07-25T08:52:42Z</time>
      </trkpt>
      <trkpt lat="46.64552" lon="5.82321">
        <ele>633.65</ele>
        <time>2013-07-25T08:53:06Z</time>
      </trkpt>
      <trkpt lat="46.64552" lon="5.82322">
        <ele>633.17</ele>
        <time>2013-07-25T08:53:29Z</time>
      </trkpt>
      <trkpt lat="46.64552" lon="5.82324">
        <ele>634.61</ele>
        <time>2013-07-25T08:54:02Z</time>
      </trkpt>
      <trkpt lat="46.64554" lon="5.82322">
        <ele>634.13</ele>
        <time>2013-07-25T08:54:09Z</time>
      </trkpt>
      <trkpt lat="46.64593" lon="5.82313">
        <ele>633.17</ele>
        <time>2013-07-25T08:54:21Z</time>
      </trkpt>
      <trkpt lat="46.64639" lon="5.82283">
        <ele>631.72</ele>
        <time>2013-07-25T08:54:32Z</time>
      </trkpt>
      <trkpt lat="46.64637" lon="5.82247">
        <ele>630.28</ele>
        <time>2013-07-25T08:54:39Z</time>
      </trkpt>
      <trkpt lat="46.64616" lon="5.82227">
        <ele>630.76</ele>
        <time>2013-07-25T08:54:44Z</time>
      </trkpt>
      <trkpt lat="46.64606" lon="5.82208">
        <ele>631.72</ele>
        <time>2013-07-25T08:54:48Z</time>
      </trkpt>
      <trkpt lat="46.64588" lon="5.82188">
        <ele>631.24</ele>
        <time>2013-07-25T08:54:53Z</time>
      </trkpt>
      <trkpt lat="46.64551" lon="5.82163">
        <ele>630.28</ele>
        <time>2013-07-25T08:55:00Z</time>
      </trkpt>
      <trkpt lat="46.64527" lon="5.82119">
        <ele>626.92</ele>
        <time>2013-07-25T08:55:06Z</time>
      </trkpt>
      <trkpt lat="46.64514" lon="5.82107">
        <ele>625.96</ele>
        <time>2013-07-25T08:55:08Z</time>
      </trkpt>
      <trkpt lat="46.64483" lon="5.8209">
        <ele>623.55</ele>
        <time>2013-07-25T08:55:12Z</time>
      </trkpt>
      <trkpt lat="46.64475" lon="5.82089">
        <ele>623.07</ele>
        <time>2013-07-25T08:55:13Z</time>
      </trkpt>
      <trkpt lat="46.64434" lon="5.82077">
        <ele>622.11</ele>
        <time>2013-07-25T08:55:19Z</time>
      </trkpt>
      <trkpt lat="46.64415" lon="5.82066">
        <ele>621.63</ele>
        <time>2013-07-25T08:55:22Z</time>
      </trkpt>
      <trkpt lat="46.64388" lon="5.8206">
        <ele>619.71</ele>
        <time>2013-07-25T08:55:26Z</time>
      </trkpt>
      <trkpt lat="46.64343" lon="5.82068">
        <ele>621.63</ele>
        <time>2013-07-25T08:55:36Z</time>
      </trkpt>
      <trkpt lat="46.64312" lon="5.82065">
        <ele>623.07</ele>
        <time>2013-07-25T08:55:46Z</time>
      </trkpt>
      <trkpt lat="46.64268" lon="5.82052">
        <ele>626.44</ele>
        <time>2013-07-25T08:56:03Z</time>
      </trkpt>
      <trkpt lat="46.6426" lon="5.82052">
        <ele>627.4</ele>
        <time>2013-07-25T08:56:07Z</time>
      </trkpt>
      <trkpt lat="46.64244" lon="5.82056">
        <ele>629.8</ele>
        <time>2013-07-25T08:56:18Z</time>
      </trkpt>
      <trkpt lat="46.64241" lon="5.82056">
        <ele>630.76</ele>
        <time>2013-07-25T08:56:20Z</time>
      </trkpt>
      <trkpt lat="46.6422" lon="5.82054">
        <ele>632.68</ele>
        <time>2013-07-25T08:56:34Z</time>
      </trkpt>
      <trkpt lat="46.64204" lon="5.82052">
        <ele>635.09</ele>
        <time>2013-07-25T08:56:43Z</time>
      </trkpt>
      <trkpt lat="46.64191" lon="5.82047">
        <ele>637.49</ele>
        <time>2013-07-25T08:56:52Z</time>
      </trkpt>
      <trkpt lat="46.64166" lon="5.82036">
        <ele>640.38</ele>
        <time>2013-07-25T08:57:08Z</time>
      </trkpt>
      <trkpt lat="46.6416" lon="5.82033">
        <ele>639.89</ele>
        <time>2013-07-25T08:57:24Z</time>
      </trkpt>
      <trkpt lat="46.64159" lon="5.82029">
        <ele>640.38</ele>
        <time>2013-07-25T08:57:52Z</time>
      </trkpt>
      <trkpt lat="46.6416" lon="5.82028">
        <ele>639.41</ele>
        <time>2013-07-25T08:58:05Z</time>
      </trkpt>
      <trkpt lat="46.64157" lon="5.82033">
        <ele>639.41</ele>
        <time>2013-07-25T08:58:32Z</time>
      </trkpt>
      <trkpt lat="46.64158" lon="5.82026">
        <ele>639.89</ele>
        <time>2013-07-25T08:59:03Z</time>
      </trkpt>
      <trkpt lat="46.64169" lon="5.82021">
        <ele>639.89</ele>
        <time>2013-07-25T08:59:34Z</time>
      </trkpt>
      <trkpt lat="46.64171" lon="5.82026">
        <ele>641.34</ele>
        <time>2013-07-25T09:00:06Z</time>
      </trkpt>
      <trkpt lat="46.64169" lon="5.82027">
        <ele>640.86</ele>
        <time>2013-07-25T09:00:07Z</time>
      </trkpt>
      <trkpt lat="46.64163" lon="5.82031">
        <ele>639.89</ele>
        <time>2013-07-25T09:00:35Z</time>
      </trkpt>
      <trkpt lat="46.64166" lon="5.82033">
        <ele>640.38</ele>
        <time>2013-07-25T09:00:53Z</time>
      </trkpt>
      <trkpt lat="46.64158" lon="5.82036">
        <ele>639.41</ele>
        <time>2013-07-25T09:01:17Z</time>
      </trkpt>
      <trkpt lat="46.64159" lon="5.8204">
        <ele>639.89</ele>
        <time>2013-07-25T09:01:39Z</time>
      </trkpt>
      <trkpt lat="46.6416" lon="5.82041">
        <ele>639.89</ele>
        <time>2013-07-25T09:02:01Z</time>
      </trkpt>
      <trkpt lat="46.6416" lon="5.8204">
        <ele>639.89</ele>
        <time>2013-07-25T09:02:33Z</time>
      </trkpt>
      <trkpt lat="46.64164" lon="5.82034">
        <ele>639.41</ele>
        <time>2013-07-25T09:03:04Z</time>
      </trkpt>
      <trkpt lat="46.6416" lon="5.82035">
        <ele>638.93</ele>
        <time>2013-07-25T09:03:34Z</time>
      </trkpt>
      <trkpt lat="46.6416" lon="5.82033">
        <ele>638.93</ele>
        <time>2013-07-25T09:03:41Z</time>
      </trkpt>
      <trkpt lat="46.64156" lon="5.82029">
        <ele>640.86</ele>
        <time>2013-07-25T09:03:55Z</time>
      </trkpt>
      <trkpt lat="46.64154" lon="5.82037">
        <ele>639.41</ele>
        <time>2013-07-25T09:04:17Z</time>
      </trkpt>
      <trkpt lat="46.64155" lon="5.82038">
        <ele>639.89</ele>
        <time>2013-07-25T09:04:18Z</time>
      </trkpt>
      <trkpt lat="46.64178" lon="5.82051">
        <ele>638.93</ele>
        <time>2013-07-25T09:04:28Z</time>
      </trkpt>
      <trkpt lat="46.64186" lon="5.82057">
        <ele>637.01</ele>
        <time>2013-07-25T09:04:30Z</time>
      </trkpt>
      <trkpt lat="46.64209" lon="5.82072">
        <ele>632.2</ele>
        <time>2013-07-25T09:04:35Z</time>
      </trkpt>
      <trkpt lat="46.64217" lon="5.82075">
        <ele>631.72</ele>
        <time>2013-07-25T09:04:37Z</time>
      </trkpt>
      <trkpt lat="46.64231" lon="5.82076">
        <ele>627.88</ele>
        <time>2013-07-25T09:04:40Z</time>
      </trkpt>
      <trkpt lat="46.64253" lon="5.82078">
        <ele>626.44</ele>
        <time>2013-07-25T09:04:43Z</time>
      </trkpt>
      <trkpt lat="46.64279" lon="5.82085">
        <ele>624.99</ele>
        <time>2013-07-25T09:04:46Z</time>
      </trkpt>
      <trkpt lat="46.64332" lon="5.8208">
        <ele>622.11</ele>
        <time>2013-07-25T09:04:52Z</time>
      </trkpt>
      <trkpt lat="46.6434" lon="5.82079">
        <ele>622.11</ele>
        <time>2013-07-25T09:04:53Z</time>
      </trkpt>
      <trkpt lat="46.64383" lon="5.82066">
        <ele>619.71</ele>
        <time>2013-07-25T09:04:59Z</time>
      </trkpt>
      <trkpt lat="46.64394" lon="5.8206">
        <ele>619.23</ele>
        <time>2013-07-25T09:05:02Z</time>
      </trkpt>
      <trkpt lat="46.64427" lon="5.82033">
        <ele>617.78</ele>
        <time>2013-07-25T09:05:13Z</time>
      </trkpt>
      <trkpt lat="46.6446" lon="5.82012">
        <ele>616.34</ele>
        <time>2013-07-25T09:05:20Z</time>
      </trkpt>
      <trkpt lat="46.645" lon="5.82007">
        <ele>614.42</ele>
        <time>2013-07-25T09:05:27Z</time>
      </trkpt>
      <trkpt lat="46.64528" lon="5.82022">
        <ele>613.94</ele>
        <time>2013-07-25T09:05:32Z</time>
      </trkpt>
      <trkpt lat="46.64554" lon="5.82017">
        <ele>614.42</ele>
        <time>2013-07-25T09:05:37Z</time>
      </trkpt>
      <trkpt lat="46.64613" lon="5.81978">
        <ele>615.38</ele>
        <time>2013-07-25T09:05:53Z</time>
      </trkpt>
      <trkpt lat="46.64665" lon="5.81948">
        <ele>613.94</ele>
        <time>2013-07-25T09:06:04Z</time>
      </trkpt>
      <trkpt lat="46.64701" lon="5.8194">
        <ele>612.98</ele>
        <time>2013-07-25T09:06:10Z</time>
      </trkpt>
      <trkpt lat="46.64722" lon="5.81924">
        <ele>612.5</ele>
        <time>2013-07-25T09:06:14Z</time>
      </trkpt>
      <trkpt lat="46.64763" lon="5.81915">
        <ele>609.61</ele>
        <time>2013-07-25T09:06:21Z</time>
      </trkpt>
      <trkpt lat="46.64793" lon="5.81908">
        <ele>610.57</ele>
        <time>2013-07-25T09:06:27Z</time>
      </trkpt>
      <trkpt lat="46.64806" lon="5.81913">
        <ele>609.61</ele>
        <time>2013-07-25T09:06:38Z</time>
      </trkpt>
      <trkpt lat="46.64806" lon="5.81913">
        <ele>610.09</ele>
        <time>2013-07-25T09:06:46Z</time>
      </trkpt>
      <trkpt lat="46.64807" lon="5.81887">
        <ele>609.61</ele>
        <time>2013-07-25T09:06:54Z</time>
      </trkpt>
      <trkpt lat="46.64816" lon="5.81859">
        <ele>609.13</ele>
        <time>2013-07-25T09:06:59Z</time>
      </trkpt>
      <trkpt lat="46.64837" lon="5.81813">
        <ele>607.69</ele>
        <time>2013-07-25T09:07:06Z</time>
      </trkpt>
      <trkpt lat="46.64842" lon="5.81796">
        <ele>606.25</ele>
        <time>2013-07-25T09:07:08Z</time>
      </trkpt>
      <trkpt lat="46.64849" lon="5.81768">
        <ele>605.29</ele>
        <time>2013-07-25T09:07:11Z</time>
      </trkpt>
      <trkpt lat="46.64855" lon="5.81739">
        <ele>603.36</ele>
        <time>2013-07-25T09:07:14Z</time>
      </trkpt>
      <trkpt lat="46.64889" lon="5.81629">
        <ele>601.44</ele>
        <time>2013-07-25T09:07:26Z</time>
      </trkpt>
      <trkpt lat="46.64901" lon="5.81531">
        <ele>599.04</ele>
        <time>2013-07-25T09:07:36Z</time>
      </trkpt>
      <trkpt lat="46.64908" lon="5.81464">
        <ele>597.12</ele>
        <time>2013-07-25T09:07:42Z</time>
      </trkpt>
      <trkpt lat="46.64907" lon="5.8143">
        <ele>595.67</ele>
        <time>2013-07-25T09:07:45Z</time>
      </trkpt>
      <trkpt lat="46.64903" lon="5.81377">
        <ele>594.71</ele>
        <time>2013-07-25T09:07:50Z</time>
      </trkpt>
      <trkpt lat="46.64917" lon="5.81296">
        <ele>593.27</ele>
        <time>2013-07-25T09:07:58Z</time>
      </trkpt>
      <trkpt lat="46.64908" lon="5.81182">
        <ele>590.87</ele>
        <time>2013-07-25T09:08:10Z</time>
      </trkpt>
      <trkpt lat="46.64894" lon="5.81112">
        <ele>589.43</ele>
        <time>2013-07-25T09:08:18Z</time>
      </trkpt>
      <trkpt lat="46.64898" lon="5.81081">
        <ele>588.95</ele>
        <time>2013-07-25T09:08:22Z</time>
      </trkpt>
      <trkpt lat="46.64914" lon="5.81059">
        <ele>589.43</ele>
        <time>2013-07-25T09:08:26Z</time>
      </trkpt>
      <trkpt lat="46.64931" lon="5.81026">
        <ele>588.46</ele>
        <time>2013-07-25T09:08:31Z</time>
      </trkpt>
      <trkpt lat="46.64947" lon="5.80935">
        <ele>590.39</ele>
        <time>2013-07-25T09:08:46Z</time>
      </trkpt>
      <trkpt lat="46.64949" lon="5.80874">
        <ele>590.87</ele>
        <time>2013-07-25T09:08:59Z</time>
      </trkpt>
      <trkpt lat="46.64952" lon="5.80799">
        <ele>591.83</ele>
        <time>2013-07-25T09:09:14Z</time>
      </trkpt>
      <trkpt lat="46.64964" lon="5.80744">
        <ele>592.31</ele>
        <time>2013-07-25T09:09:26Z</time>
      </trkpt>
      <trkpt lat="46.64988" lon="5.80687">
        <ele>592.31</ele>
        <time>2013-07-25T09:09:40Z</time>
      </trkpt>
      <trkpt lat="46.6501" lon="5.80639">
        <ele>591.35</ele>
        <time>2013-07-25T09:09:49Z</time>
      </trkpt>
      <trkpt lat="46.65064" lon="5.80569">
        <ele>588.46</ele>
        <time>2013-07-25T09:10:02Z</time>
      </trkpt>
      <trkpt lat="46.6508" lon="5.8055">
        <ele>587.02</ele>
        <time>2013-07-25T09:10:05Z</time>
      </trkpt>
      <trkpt lat="46.6509" lon="5.80538">
        <ele>587.02</ele>
        <time>2013-07-25T09:10:07Z</time>
      </trkpt>
      <trkpt lat="46.65111" lon="5.80485">
        <ele>588.46</ele>
        <time>2013-07-25T09:10:17Z</time>
      </trkpt>
      <trkpt lat="46.65124" lon="5.8046">
        <ele>591.35</ele>
        <time>2013-07-25T09:10:31Z</time>
      </trkpt>
      <trkpt lat="46.65134" lon="5.80432">
        <ele>594.71</ele>
        <time>2013-07-25T09:10:44Z</time>
      </trkpt>
      <trkpt lat="46.65143" lon="5.80407">
        <ele>597.6</ele>
        <time>2013-07-25T09:10:56Z</time>
      </trkpt>
      <trkpt lat="46.65145" lon="5.80377">
        <ele>600.48</ele>
        <time>2013-07-25T09:11:10Z</time>
      </trkpt>
      <trkpt lat="46.6516" lon="5.80345">
        <ele>601.92</ele>
        <time>2013-07-25T09:11:25Z</time>
      </trkpt>
      <trkpt lat="46.65186" lon="5.80329">
        <ele>602.88</ele>
        <time>2013-07-25T09:11:39Z</time>
      </trkpt>
      <trkpt lat="46.65218" lon="5.80341">
        <ele>602.88</ele>
        <time>2013-07-25T09:11:51Z</time>
      </trkpt>
      <trkpt lat="46.65261" lon="5.80364">
        <ele>603.85</ele>
        <time>2013-07-25T09:12:07Z</time>
      </trkpt>
      <trkpt lat="46.65275" lon="5.8037">
        <ele>604.33</ele>
        <time>2013-07-25T09:12:12Z</time>
      </trkpt>
      <trkpt lat="46.65302" lon="5.80324">
        <ele>604.33</ele>
        <time>2013-07-25T09:12:27Z</time>
      </trkpt>
      <trkpt lat="46.65322" lon="5.8028">
        <ele>604.81</ele>
        <time>2013-07-25T09:12:38Z</time>
      </trkpt>
      <trkpt lat="46.65341" lon="5.80234">
        <ele>608.17</ele>
        <time>2013-07-25T09:12:52Z</time>
      </trkpt>
      <trkpt lat="46.65363" lon="5.80179">
        <ele>609.13</ele>
        <time>2013-07-25T09:13:09Z</time>
      </trkpt>
      <trkpt lat="46.65394" lon="5.80156">
        <ele>609.13</ele>
        <time>2013-07-25T09:13:22Z</time>
      </trkpt>
      <trkpt lat="46.65435" lon="5.80181">
        <ele>610.09</ele>
        <time>2013-07-25T09:13:36Z</time>
      </trkpt>
      <trkpt lat="46.65475" lon="5.80209">
        <ele>612.5</ele>
        <time>2013-07-25T09:13:54Z</time>
      </trkpt>
      <trkpt lat="46.65522" lon="5.80251">
        <ele>613.46</ele>
        <time>2013-07-25T09:14:11Z</time>
      </trkpt>
      <trkpt lat="46.65587" lon="5.8032">
        <ele>611.54</ele>
        <time>2013-07-25T09:14:27Z</time>
      </trkpt>
      <trkpt lat="46.65637" lon="5.8035">
        <ele>612.98</ele>
        <time>2013-07-25T09:14:40Z</time>
      </trkpt>
      <trkpt lat="46.65677" lon="5.80376">
        <ele>612.5</ele>
        <time>2013-07-25T09:14:54Z</time>
      </trkpt>
      <trkpt lat="46.65693" lon="5.80353">
        <ele>613.94</ele>
        <time>2013-07-25T09:15:02Z</time>
      </trkpt>
      <trkpt lat="46.65699" lon="5.80249">
        <ele>614.9</ele>
        <time>2013-07-25T09:15:20Z</time>
      </trkpt>
      <trkpt lat="46.657" lon="5.80128">
        <ele>614.42</ele>
        <time>2013-07-25T09:15:41Z</time>
      </trkpt>
      <trkpt lat="46.65701" lon="5.80069">
        <ele>613.94</ele>
        <time>2013-07-25T09:15:51Z</time>
      </trkpt>
      <trkpt lat="46.65701" lon="5.7994">
        <ele>611.06</ele>
        <time>2013-07-25T09:16:06Z</time>
      </trkpt>
      <trkpt lat="46.65701" lon="5.79862">
        <ele>608.17</ele>
        <time>2013-07-25T09:16:13Z</time>
      </trkpt>
      <trkpt lat="46.6569" lon="5.79798">
        <ele>606.73</ele>
        <time>2013-07-25T09:16:19Z</time>
      </trkpt>
      <trkpt lat="46.65679" lon="5.79746">
        <ele>604.81</ele>
        <time>2013-07-25T09:16:24Z</time>
      </trkpt>
      <trkpt lat="46.65644" lon="5.79543">
        <ele>601.92</ele>
        <time>2013-07-25T09:16:44Z</time>
      </trkpt>
      <trkpt lat="46.65641" lon="5.79501">
        <ele>600.96</ele>
        <time>2013-07-25T09:16:49Z</time>
      </trkpt>
      <trkpt lat="46.65643" lon="5.79476">
        <ele>599.04</ele>
        <time>2013-07-25T09:16:58Z</time>
      </trkpt>
      <trkpt lat="46.65645" lon="5.79479">
        <ele>600</ele>
        <time>2013-07-25T09:17:21Z</time>
      </trkpt>
      <trkpt lat="46.65645" lon="5.79479">
        <ele>599.52</ele>
        <time>2013-07-25T09:18:01Z</time>
      </trkpt>
      <trkpt lat="46.6564" lon="5.79482">
        <ele>599.52</ele>
        <time>2013-07-25T09:18:34Z</time>
      </trkpt>
      <trkpt lat="46.65642" lon="5.79475">
        <ele>599.52</ele>
        <time>2013-07-25T09:19:11Z</time>
      </trkpt>
      <trkpt lat="46.6564" lon="5.79435">
        <ele>599.52</ele>
        <time>2013-07-25T09:19:21Z</time>
      </trkpt>
      <trkpt lat="46.65639" lon="5.79345">
        <ele>598.56</ele>
        <time>2013-07-25T09:19:34Z</time>
      </trkpt>
      <trkpt lat="46.65633" lon="5.79208">
        <ele>596.64</ele>
        <time>2013-07-25T09:19:52Z</time>
      </trkpt>
      <trkpt lat="46.6563" lon="5.79186">
        <ele>595.67</ele>
        <time>2013-07-25T09:19:57Z</time>
      </trkpt>
      <trkpt lat="46.65626" lon="5.79196">
        <ele>595.19</ele>
        <time>2013-07-25T09:20:02Z</time>
      </trkpt>
      <trkpt lat="46.65632" lon="5.79281">
        <ele>596.64</ele>
        <time>2013-07-25T09:20:18Z</time>
      </trkpt>
      <trkpt lat="46.65636" lon="5.79357">
        <ele>597.12</ele>
        <time>2013-07-25T09:20:33Z</time>
      </trkpt>
      <trkpt lat="46.65636" lon="5.79365">
        <ele>596.64</ele>
        <time>2013-07-25T09:20:35Z</time>
      </trkpt>
      <trkpt lat="46.65639" lon="5.79414">
        <ele>598.56</ele>
        <time>2013-07-25T09:20:46Z</time>
      </trkpt>
      <trkpt lat="46.65646" lon="5.79434">
        <ele>597.6</ele>
        <time>2013-07-25T09:20:51Z</time>
      </trkpt>
      <trkpt lat="46.65665" lon="5.79414">
        <ele>596.64</ele>
        <time>2013-07-25T09:20:59Z</time>
      </trkpt>
      <trkpt lat="46.65671" lon="5.79406">
        <ele>596.64</ele>
        <time>2013-07-25T09:21:15Z</time>
      </trkpt>
      <trkpt lat="46.65676" lon="5.79392">
        <ele>596.64</ele>
        <time>2013-07-25T09:21:31Z</time>
      </trkpt>
      <trkpt lat="46.6568" lon="5.7938">
        <ele>596.64</ele>
        <time>2013-07-25T09:21:42Z</time>
      </trkpt>
      <trkpt lat="46.65695" lon="5.79348">
        <ele>597.12</ele>
        <time>2013-07-25T09:21:55Z</time>
      </trkpt>
      <trkpt lat="46.65711" lon="5.79307">
        <ele>597.12</ele>
        <time>2013-07-25T09:22:08Z</time>
      </trkpt>
      <trkpt lat="46.6573" lon="5.79277">
        <ele>597.6</ele>
        <time>2013-07-25T09:22:19Z</time>
      </trkpt>
      <trkpt lat="46.65756" lon="5.79243">
        <ele>599.52</ele>
        <time>2013-07-25T09:22:32Z</time>
      </trkpt>
      <trkpt lat="46.65773" lon="5.79215">
        <ele>600.96</ele>
        <time>2013-07-25T09:22:44Z</time>
      </trkpt>
      <trkpt lat="46.6579" lon="5.79187">
        <ele>603.85</ele>
        <time>2013-07-25T09:22:55Z</time>
      </trkpt>
      <trkpt lat="46.65808" lon="5.79161">
        <ele>605.77</ele>
        <time>2013-07-25T09:23:06Z</time>
      </trkpt>
      <trkpt lat="46.65815" lon="5.79142">
        <ele>606.73</ele>
        <time>2013-07-25T09:23:15Z</time>
      </trkpt>
      <trkpt lat="46.65826" lon="5.79125">
        <ele>606.25</ele>
        <time>2013-07-25T09:23:20Z</time>
      </trkpt>
      <trkpt lat="46.65844" lon="5.79099">
        <ele>605.29</ele>
        <time>2013-07-25T09:23:33Z</time>
      </trkpt>
      <trkpt lat="46.6586" lon="5.7907">
        <ele>603.36</ele>
        <time>2013-07-25T09:23:41Z</time>
      </trkpt>
      <trkpt lat="46.65887" lon="5.79013">
        <ele>600</ele>
        <time>2013-07-25T09:23:47Z</time>
      </trkpt>
      <trkpt lat="46.65887" lon="5.79008">
        <ele>600</ele>
        <time>2013-07-25T09:23:48Z</time>
      </trkpt>
      <trkpt lat="46.65887" lon="5.78984">
        <ele>598.56</ele>
        <time>2013-07-25T09:23:53Z</time>
      </trkpt>
      <trkpt lat="46.6589" lon="5.78975">
        <ele>598.08</ele>
        <time>2013-07-25T09:23:57Z</time>
      </trkpt>
      <trkpt lat="46.65889" lon="5.7897">
        <ele>597.6</ele>
        <time>2013-07-25T09:24:00Z</time>
      </trkpt>
      <trkpt lat="46.65887" lon="5.78966">
        <ele>598.08</ele>
        <time>2013-07-25T09:24:05Z</time>
      </trkpt>
      <trkpt lat="46.65903" lon="5.78996">
        <ele>598.08</ele>
        <time>2013-07-25T09:24:17Z</time>
      </trkpt>
      <trkpt lat="46.65909" lon="5.79004">
        <ele>598.08</ele>
        <time>2013-07-25T09:24:21Z</time>
      </trkpt>
      <trkpt lat="46.65901" lon="5.78991">
        <ele>598.08</ele>
        <time>2013-07-25T09:24:29Z</time>
      </trkpt>
      <trkpt lat="46.65893" lon="5.78982">
        <ele>597.6</ele>
        <time>2013-07-25T09:24:32Z</time>
      </trkpt>
      <trkpt lat="46.65886" lon="5.78972">
        <ele>597.6</ele>
        <time>2013-07-25T09:24:35Z</time>
      </trkpt>
      <trkpt lat="46.6588" lon="5.78917">
        <ele>598.08</ele>
        <time>2013-07-25T09:24:47Z</time>
      </trkpt>
      <trkpt lat="46.6588" lon="5.78905">
        <ele>597.12</ele>
        <time>2013-07-25T09:24:49Z</time>
      </trkpt>
      <trkpt lat="46.65879" lon="5.78892">
        <ele>597.6</ele>
        <time>2013-07-25T09:24:51Z</time>
      </trkpt>
      <trkpt lat="46.65877" lon="5.78841">
        <ele>592.79</ele>
        <time>2013-07-25T09:24:57Z</time>
      </trkpt>
      <trkpt lat="46.65878" lon="5.78828">
        <ele>591.35</ele>
        <time>2013-07-25T09:25:00Z</time>
      </trkpt>
      <trkpt lat="46.65878" lon="5.78824">
        <ele>590.87</ele>
        <time>2013-07-25T09:25:15Z</time>
      </trkpt>
      <trkpt lat="46.65876" lon="5.78821">
        <ele>591.35</ele>
        <time>2013-07-25T09:25:45Z</time>
      </trkpt>
      <trkpt lat="46.6588" lon="5.78817">
        <ele>590.87</ele>
        <time>2013-07-25T09:26:29Z</time>
      </trkpt>
      <trkpt lat="46.65879" lon="5.7882">
        <ele>590.87</ele>
        <time>2013-07-25T09:27:00Z</time>
      </trkpt>
      <trkpt lat="46.65871" lon="5.7882">
        <ele>590.87</ele>
        <time>2013-07-25T09:27:32Z</time>
      </trkpt>
      <trkpt lat="46.65876" lon="5.78821">
        <ele>591.35</ele>
        <time>2013-07-25T09:27:45Z</time>
      </trkpt>
      <trkpt lat="46.65883" lon="5.78819">
        <ele>591.35</ele>
        <time>2013-07-25T09:28:23Z</time>
      </trkpt>
      <trkpt lat="46.65881" lon="5.78825">
        <ele>590.87</ele>
        <time>2013-07-25T09:28:30Z</time>
      </trkpt>
      <trkpt lat="46.65881" lon="5.78834">
        <ele>592.79</ele>
        <time>2013-07-25T09:28:35Z</time>
      </trkpt>
      <trkpt lat="46.6588" lon="5.78875">
        <ele>596.15</ele>
        <time>2013-07-25T09:28:49Z</time>
      </trkpt>
      <trkpt lat="46.65882" lon="5.78915">
        <ele>598.08</ele>
        <time>2013-07-25T09:29:03Z</time>
      </trkpt>
      <trkpt lat="46.65889" lon="5.78959">
        <ele>598.56</ele>
        <time>2013-07-25T09:29:15Z</time>
      </trkpt>
      <trkpt lat="46.65892" lon="5.7897">
        <ele>598.08</ele>
        <time>2013-07-25T09:29:22Z</time>
      </trkpt>
      <trkpt lat="46.65883" lon="5.78941">
        <ele>598.08</ele>
        <time>2013-07-25T09:29:35Z</time>
      </trkpt>
      <trkpt lat="46.65872" lon="5.78886">
        <ele>598.08</ele>
        <time>2013-07-25T09:29:48Z</time>
      </trkpt>
      <trkpt lat="46.65857" lon="5.78832">
        <ele>598.56</ele>
        <time>2013-07-25T09:30:00Z</time>
      </trkpt>
      <trkpt lat="46.65854" lon="5.788">
        <ele>599.04</ele>
        <time>2013-07-25T09:30:10Z</time>
      </trkpt>
      <trkpt lat="46.65853" lon="5.78785">
        <ele>599.04</ele>
        <time>2013-07-25T09:30:38Z</time>
      </trkpt>
      <trkpt lat="46.65849" lon="5.78759">
        <ele>599.04</ele>
        <time>2013-07-25T09:31:02Z</time>
      </trkpt>
      <trkpt lat="46.65839" lon="5.78719">
        <ele>600</ele>
        <time>2013-07-25T09:31:12Z</time>
      </trkpt>
      <trkpt lat="46.65833" lon="5.78676">
        <ele>600.48</ele>
        <time>2013-07-25T09:31:22Z</time>
      </trkpt>
      <trkpt lat="46.6583" lon="5.78638">
        <ele>601.44</ele>
        <time>2013-07-25T09:31:32Z</time>
      </trkpt>
      <trkpt lat="46.65828" lon="5.78578">
        <ele>601.44</ele>
        <time>2013-07-25T09:31:45Z</time>
      </trkpt>
      <trkpt lat="46.65829" lon="5.78534">
        <ele>602.88</ele>
        <time>2013-07-25T09:31:55Z</time>
      </trkpt>
      <trkpt lat="46.65827" lon="5.78489">
        <ele>604.33</ele>
        <time>2013-07-25T09:32:06Z</time>
      </trkpt>
      <trkpt lat="46.65821" lon="5.78437">
        <ele>604.81</ele>
        <time>2013-07-25T09:32:19Z</time>
      </trkpt>
      <trkpt lat="46.65818" lon="5.78432">
        <ele>604.81</ele>
        <time>2013-07-25T09:32:21Z</time>
      </trkpt>
      <trkpt lat="46.65815" lon="5.78422">
        <ele>605.29</ele>
        <time>2013-07-25T09:32:25Z</time>
      </trkpt>
      <trkpt lat="46.6581" lon="5.78407">
        <ele>604.81</ele>
        <time>2013-07-25T09:32:31Z</time>
      </trkpt>
      <trkpt lat="46.65802" lon="5.78386">
        <ele>604.33</ele>
        <time>2013-07-25T09:32:37Z</time>
      </trkpt>
      <trkpt lat="46.65798" lon="5.78376">
        <ele>604.81</ele>
        <time>2013-07-25T09:32:41Z</time>
      </trkpt>
      <trkpt lat="46.65783" lon="5.78353">
        <ele>604.33</ele>
        <time>2013-07-25T09:32:54Z</time>
      </trkpt>
      <trkpt lat="46.65775" lon="5.78346">
        <ele>604.33</ele>
        <time>2013-07-25T09:33:08Z</time>
      </trkpt>
      <trkpt lat="46.65782" lon="5.78357">
        <ele>604.81</ele>
        <time>2013-07-25T09:33:23Z</time>
      </trkpt>
      <trkpt lat="46.65782" lon="5.78359">
        <ele>604.81</ele>
        <time>2013-07-25T09:33:24Z</time>
      </trkpt>
      <trkpt lat="46.65792" lon="5.78378">
        <ele>604.81</ele>
        <time>2013-07-25T09:33:35Z</time>
      </trkpt>
      <trkpt lat="46.65803" lon="5.78409">
        <ele>604.81</ele>
        <time>2013-07-25T09:33:47Z</time>
      </trkpt>
      <trkpt lat="46.65815" lon="5.78442">
        <ele>604.33</ele>
        <time>2013-07-25T09:33:58Z</time>
      </trkpt>
      <trkpt lat="46.6582" lon="5.78488">
        <ele>603.85</ele>
        <time>2013-07-25T09:34:08Z</time>
      </trkpt>
      <trkpt lat="46.65822" lon="5.78545">
        <ele>601.92</ele>
        <time>2013-07-25T09:34:19Z</time>
      </trkpt>
      <trkpt lat="46.65822" lon="5.78597">
        <ele>600.96</ele>
        <time>2013-07-25T09:34:29Z</time>
      </trkpt>
      <trkpt lat="46.65827" lon="5.78653">
        <ele>600.48</ele>
        <time>2013-07-25T09:34:39Z</time>
      </trkpt>
      <trkpt lat="46.65834" lon="5.78715">
        <ele>599.04</ele>
        <time>2013-07-25T09:34:49Z</time>
      </trkpt>
      <trkpt lat="46.65844" lon="5.78758">
        <ele>599.04</ele>
        <time>2013-07-25T09:34:56Z</time>
      </trkpt>
      <trkpt lat="46.65854" lon="5.7882">
        <ele>599.04</ele>
        <time>2013-07-25T09:35:07Z</time>
      </trkpt>
      <trkpt lat="46.65869" lon="5.78886">
        <ele>598.56</ele>
        <time>2013-07-25T09:35:19Z</time>
      </trkpt>
      <trkpt lat="46.65874" lon="5.78913">
        <ele>597.6</ele>
        <time>2013-07-25T09:35:27Z</time>
      </trkpt>
      <trkpt lat="46.65877" lon="5.78895">
        <ele>596.64</ele>
        <time>2013-07-25T09:35:31Z</time>
      </trkpt>
      <trkpt lat="46.65875" lon="5.78874">
        <ele>596.15</ele>
        <time>2013-07-25T09:35:34Z</time>
      </trkpt>
      <trkpt lat="46.65874" lon="5.78825">
        <ele>592.79</ele>
        <time>2013-07-25T09:35:39Z</time>
      </trkpt>
      <trkpt lat="46.65874" lon="5.78814">
        <ele>592.79</ele>
        <time>2013-07-25T09:35:40Z</time>
      </trkpt>
      <trkpt lat="46.65874" lon="5.78785">
        <ele>588.95</ele>
        <time>2013-07-25T09:35:43Z</time>
      </trkpt>
      <trkpt lat="46.65874" lon="5.78753">
        <ele>586.06</ele>
        <time>2013-07-25T09:35:46Z</time>
      </trkpt>
      <trkpt lat="46.65875" lon="5.78741">
        <ele>585.58</ele>
        <time>2013-07-25T09:35:47Z</time>
      </trkpt>
      <trkpt lat="46.65876" lon="5.7869">
        <ele>582.7</ele>
        <time>2013-07-25T09:35:51Z</time>
      </trkpt>
      <trkpt lat="46.65879" lon="5.78649">
        <ele>579.81</ele>
        <time>2013-07-25T09:35:54Z</time>
      </trkpt>
      <trkpt lat="46.65889" lon="5.7861">
        <ele>575.49</ele>
        <time>2013-07-25T09:35:59Z</time>
      </trkpt>
      <trkpt lat="46.6589" lon="5.78608">
        <ele>575.97</ele>
        <time>2013-07-25T09:36:00Z</time>
      </trkpt>
      <trkpt lat="46.6589" lon="5.78606">
        <ele>575.97</ele>
        <time>2013-07-25T09:36:01Z</time>
      </trkpt>
      <trkpt lat="46.65888" lon="5.7862">
        <ele>576.45</ele>
        <time>2013-07-25T09:36:07Z</time>
      </trkpt>
      <trkpt lat="46.65886" lon="5.78628">
        <ele>577.41</ele>
        <time>2013-07-25T09:36:20Z</time>
      </trkpt>
      <trkpt lat="46.65888" lon="5.78624">
        <ele>577.41</ele>
        <time>2013-07-25T09:36:26Z</time>
      </trkpt>
      <trkpt lat="46.65893" lon="5.78591">
        <ele>576.45</ele>
        <time>2013-07-25T09:36:35Z</time>
      </trkpt>
      <trkpt lat="46.65894" lon="5.78542">
        <ele>575.49</ele>
        <time>2013-07-25T09:36:41Z</time>
      </trkpt>
      <trkpt lat="46.65884" lon="5.78492">
        <ele>572.12</ele>
        <time>2013-07-25T09:36:46Z</time>
      </trkpt>
      <trkpt lat="46.65879" lon="5.78441">
        <ele>569.24</ele>
        <time>2013-07-25T09:36:50Z</time>
      </trkpt>
      <trkpt lat="46.65886" lon="5.78379">
        <ele>563.95</ele>
        <time>2013-07-25T09:36:55Z</time>
      </trkpt>
      <trkpt lat="46.65887" lon="5.78367">
        <ele>562.99</ele>
        <time>2013-07-25T09:36:56Z</time>
      </trkpt>
      <trkpt lat="46.65885" lon="5.78313">
        <ele>558.66</ele>
        <time>2013-07-25T09:37:00Z</time>
      </trkpt>
      <trkpt lat="46.65879" lon="5.78275">
        <ele>554.82</ele>
        <time>2013-07-25T09:37:03Z</time>
      </trkpt>
      <trkpt lat="46.65867" lon="5.78248">
        <ele>550.49</ele>
        <time>2013-07-25T09:37:07Z</time>
      </trkpt>
      <trkpt lat="46.65859" lon="5.78251">
        <ele>550.49</ele>
        <time>2013-07-25T09:37:11Z</time>
      </trkpt>
      <trkpt lat="46.65853" lon="5.78252">
        <ele>550.97</ele>
        <time>2013-07-25T09:37:17Z</time>
      </trkpt>
      <trkpt lat="46.65828" lon="5.78226">
        <ele>553.38</ele>
        <time>2013-07-25T09:37:31Z</time>
      </trkpt>
      <trkpt lat="46.65799" lon="5.78191">
        <ele>554.34</ele>
        <time>2013-07-25T09:37:43Z</time>
      </trkpt>
      <trkpt lat="46.65787" lon="5.78174">
        <ele>554.34</ele>
        <time>2013-07-25T09:37:47Z</time>
      </trkpt>
      <trkpt lat="46.65725" lon="5.78101">
        <ele>551.93</ele>
        <time>2013-07-25T09:38:02Z</time>
      </trkpt>
      <trkpt lat="46.65625" lon="5.78038">
        <ele>549.05</ele>
        <time>2013-07-25T09:38:15Z</time>
      </trkpt>
      <trkpt lat="46.65559" lon="5.77994">
        <ele>550.49</ele>
        <time>2013-07-25T09:38:26Z</time>
      </trkpt>
      <trkpt lat="46.65551" lon="5.77987">
        <ele>551.45</ele>
        <time>2013-07-25T09:38:28Z</time>
      </trkpt>
      <trkpt lat="46.65531" lon="5.7797">
        <ele>551.45</ele>
        <time>2013-07-25T09:38:33Z</time>
      </trkpt>
      <trkpt lat="46.65515" lon="5.77948">
        <ele>549.53</ele>
        <time>2013-07-25T09:38:37Z</time>
      </trkpt>
      <trkpt lat="46.65507" lon="5.77929">
        <ele>545.2</ele>
        <time>2013-07-25T09:38:40Z</time>
      </trkpt>
      <trkpt lat="46.65503" lon="5.77912">
        <ele>542.8</ele>
        <time>2013-07-25T09:38:43Z</time>
      </trkpt>
      <trkpt lat="46.65505" lon="5.77892">
        <ele>538.48</ele>
        <time>2013-07-25T09:38:47Z</time>
      </trkpt>
      <trkpt lat="46.65506" lon="5.77884">
        <ele>536.55</ele>
        <time>2013-07-25T09:38:49Z</time>
      </trkpt>
      <trkpt lat="46.65481" lon="5.77876">
        <ele>535.59</ele>
        <time>2013-07-25T09:38:55Z</time>
      </trkpt>
      <trkpt lat="46.65449" lon="5.77884">
        <ele>534.63</ele>
        <time>2013-07-25T09:39:06Z</time>
      </trkpt>
      <trkpt lat="46.65421" lon="5.77892">
        <ele>533.67</ele>
        <time>2013-07-25T09:39:14Z</time>
      </trkpt>
      <trkpt lat="46.65412" lon="5.77891">
        <ele>533.67</ele>
        <time>2013-07-25T09:39:16Z</time>
      </trkpt>
      <trkpt lat="46.65384" lon="5.77903">
        <ele>534.63</ele>
        <time>2013-07-25T09:39:25Z</time>
      </trkpt>
      <trkpt lat="46.6537" lon="5.77927">
        <ele>537.03</ele>
        <time>2013-07-25T09:39:35Z</time>
      </trkpt>
      <trkpt lat="46.65367" lon="5.77931">
        <ele>537.03</ele>
        <time>2013-07-25T09:39:37Z</time>
      </trkpt>
      <trkpt lat="46.65339" lon="5.7796">
        <ele>538.96</ele>
        <time>2013-07-25T09:39:50Z</time>
      </trkpt>
      <trkpt lat="46.65334" lon="5.77965">
        <ele>539.44</ele>
        <time>2013-07-25T09:39:52Z</time>
      </trkpt>
      <trkpt lat="46.65304" lon="5.77952">
        <ele>539.44</ele>
        <time>2013-07-25T09:40:04Z</time>
      </trkpt>
      <trkpt lat="46.65294" lon="5.77948">
        <ele>537.99</ele>
        <time>2013-07-25T09:40:07Z</time>
      </trkpt>
      <trkpt lat="46.65261" lon="5.7792">
        <ele>538.96</ele>
        <time>2013-07-25T09:40:19Z</time>
      </trkpt>
      <trkpt lat="46.65247" lon="5.7789">
        <ele>539.44</ele>
        <time>2013-07-25T09:40:27Z</time>
      </trkpt>
      <trkpt lat="46.65239" lon="5.77882">
        <ele>538.96</ele>
        <time>2013-07-25T09:40:35Z</time>
      </trkpt>
      <trkpt lat="46.65239" lon="5.77883">
        <ele>537.03</ele>
        <time>2013-07-25T09:40:43Z</time>
      </trkpt>
      <trkpt lat="46.65239" lon="5.77884">
        <ele>539.44</ele>
        <time>2013-07-25T09:40:48Z</time>
      </trkpt>
      <trkpt lat="46.65236" lon="5.77886">
        <ele>546.17</ele>
        <time>2013-07-25T09:40:53Z</time>
      </trkpt>
      <trkpt lat="46.65235" lon="5.77886">
        <ele>538.96</ele>
        <time>2013-07-25T09:40:54Z</time>
      </trkpt>
      <trkpt lat="46.65236" lon="5.77884">
        <ele>538.96</ele>
        <time>2013-07-25T09:40:56Z</time>
      </trkpt>
      <trkpt lat="46.6523" lon="5.77856">
        <ele>539.44</ele>
        <time>2013-07-25T09:41:06Z</time>
      </trkpt>
      <trkpt lat="46.65208" lon="5.77825">
        <ele>538.96</ele>
        <time>2013-07-25T09:41:18Z</time>
      </trkpt>
      <trkpt lat="46.652" lon="5.77815">
        <ele>537.99</ele>
        <time>2013-07-25T09:41:29Z</time>
      </trkpt>
      <trkpt lat="46.65197" lon="5.77814">
        <ele>537.99</ele>
        <time>2013-07-25T09:41:43Z</time>
      </trkpt>
      <trkpt lat="46.65185" lon="5.77804">
        <ele>537.03</ele>
        <time>2013-07-25T09:41:50Z</time>
      </trkpt>
      <trkpt lat="46.65175" lon="5.77801">
        <ele>537.51</ele>
        <time>2013-07-25T09:41:53Z</time>
      </trkpt>
      <trkpt lat="46.65166" lon="5.77799">
        <ele>537.03</ele>
        <time>2013-07-25T09:41:55Z</time>
      </trkpt>
      <trkpt lat="46.65143" lon="5.77799">
        <ele>536.07</ele>
        <time>2013-07-25T09:41:59Z</time>
      </trkpt>
      <trkpt lat="46.65123" lon="5.77808">
        <ele>534.63</ele>
        <time>2013-07-25T09:42:02Z</time>
      </trkpt>
      <trkpt lat="46.6511" lon="5.77815">
        <ele>534.15</ele>
        <time>2013-07-25T09:42:04Z</time>
      </trkpt>
      <trkpt lat="46.65087" lon="5.77836">
        <ele>533.19</ele>
        <time>2013-07-25T09:42:08Z</time>
      </trkpt>
      <trkpt lat="46.65072" lon="5.77857">
        <ele>532.71</ele>
        <time>2013-07-25T09:42:11Z</time>
      </trkpt>
      <trkpt lat="46.65059" lon="5.77881">
        <ele>532.23</ele>
        <time>2013-07-25T09:42:14Z</time>
      </trkpt>
      <trkpt lat="46.65036" lon="5.77906">
        <ele>530.79</ele>
        <time>2013-07-25T09:42:18Z</time>
      </trkpt>
      <trkpt lat="46.65008" lon="5.77965">
        <ele>531.75</ele>
        <time>2013-07-25T09:42:26Z</time>
      </trkpt>
      <trkpt lat="46.65005" lon="5.77996">
        <ele>530.79</ele>
        <time>2013-07-25T09:42:30Z</time>
      </trkpt>
      <trkpt lat="46.65002" lon="5.78003">
        <ele>530.3</ele>
        <time>2013-07-25T09:42:31Z</time>
      </trkpt>
      <trkpt lat="46.64997" lon="5.78007">
        <ele>530.3</ele>
        <time>2013-07-25T09:42:32Z</time>
      </trkpt>
      <trkpt lat="46.64991" lon="5.78008">
        <ele>529.82</ele>
        <time>2013-07-25T09:42:33Z</time>
      </trkpt>
      <trkpt lat="46.64978" lon="5.77955">
        <ele>527.9</ele>
        <time>2013-07-25T09:42:38Z</time>
      </trkpt>
      <trkpt lat="46.64972" lon="5.77926">
        <ele>526.46</ele>
        <time>2013-07-25T09:42:41Z</time>
      </trkpt>
      <trkpt lat="46.64953" lon="5.77854">
        <ele>522.61</ele>
        <time>2013-07-25T09:42:48Z</time>
      </trkpt>
      <trkpt lat="46.64952" lon="5.77844">
        <ele>520.69</ele>
        <time>2013-07-25T09:42:49Z</time>
      </trkpt>
      <trkpt lat="46.64947" lon="5.77826">
        <ele>519.73</ele>
        <time>2013-07-25T09:42:51Z</time>
      </trkpt>
      <trkpt lat="46.64935" lon="5.77809">
        <ele>517.81</ele>
        <time>2013-07-25T09:42:54Z</time>
      </trkpt>
      <trkpt lat="46.64917" lon="5.77807">
        <ele>517.81</ele>
        <time>2013-07-25T09:42:57Z</time>
      </trkpt>
      <trkpt lat="46.64888" lon="5.77812">
        <ele>517.33</ele>
        <time>2013-07-25T09:43:02Z</time>
      </trkpt>
      <trkpt lat="46.64865" lon="5.77805">
        <ele>516.37</ele>
        <time>2013-07-25T09:43:06Z</time>
      </trkpt>
      <trkpt lat="46.64794" lon="5.77762">
        <ele>515.4</ele>
        <time>2013-07-25T09:43:19Z</time>
      </trkpt>
      <trkpt lat="46.64753" lon="5.77729">
        <ele>515.4</ele>
        <time>2013-07-25T09:43:27Z</time>
      </trkpt>
      <trkpt lat="46.64738" lon="5.77704">
        <ele>515.4</ele>
        <time>2013-07-25T09:43:31Z</time>
      </trkpt>
      <trkpt lat="46.64733" lon="5.7765">
        <ele>518.29</ele>
        <time>2013-07-25T09:43:41Z</time>
      </trkpt>
      <trkpt lat="46.64743" lon="5.776">
        <ele>519.73</ele>
        <time>2013-07-25T09:43:52Z</time>
      </trkpt>
      <trkpt lat="46.64738" lon="5.77551">
        <ele>520.21</ele>
        <time>2013-07-25T09:44:03Z</time>
      </trkpt>
      <trkpt lat="46.64742" lon="5.77525">
        <ele>520.21</ele>
        <time>2013-07-25T09:44:08Z</time>
      </trkpt>
      <trkpt lat="46.64762" lon="5.77474">
        <ele>521.65</ele>
        <time>2013-07-25T09:44:21Z</time>
      </trkpt>
      <trkpt lat="46.64774" lon="5.77426">
        <ele>524.06</ele>
        <time>2013-07-25T09:44:35Z</time>
      </trkpt>
      <trkpt lat="46.64789" lon="5.77381">
        <ele>525.5</ele>
        <time>2013-07-25T09:44:49Z</time>
      </trkpt>
      <trkpt lat="46.64809" lon="5.77329">
        <ele>527.9</ele>
        <time>2013-07-25T09:45:06Z</time>
      </trkpt>
      <trkpt lat="46.64829" lon="5.77276">
        <ele>529.34</ele>
        <time>2013-07-25T09:45:23Z</time>
      </trkpt>
      <trkpt lat="46.64846" lon="5.77232">
        <ele>530.79</ele>
        <time>2013-07-25T09:45:37Z</time>
      </trkpt>
      <trkpt lat="46.64864" lon="5.77187">
        <ele>532.23</ele>
        <time>2013-07-25T09:45:51Z</time>
      </trkpt>
      <trkpt lat="46.64878" lon="5.77147">
        <ele>533.67</ele>
        <time>2013-07-25T09:46:03Z</time>
      </trkpt>
      <trkpt lat="46.64878" lon="5.77144">
        <ele>534.63</ele>
        <time>2013-07-25T09:46:04Z</time>
      </trkpt>
      <trkpt lat="46.64883" lon="5.77132">
        <ele>534.63</ele>
        <time>2013-07-25T09:46:08Z</time>
      </trkpt>
      <trkpt lat="46.64893" lon="5.77087">
        <ele>536.07</ele>
        <time>2013-07-25T09:46:21Z</time>
      </trkpt>
      <trkpt lat="46.64891" lon="5.77037">
        <ele>537.99</ele>
        <time>2013-07-25T09:46:35Z</time>
      </trkpt>
      <trkpt lat="46.64872" lon="5.77002">
        <ele>539.44</ele>
        <time>2013-07-25T09:46:50Z</time>
      </trkpt>
      <trkpt lat="46.64857" lon="5.76972">
        <ele>540.4</ele>
        <time>2013-07-25T09:47:02Z</time>
      </trkpt>
      <trkpt lat="46.64843" lon="5.76942">
        <ele>541.84</ele>
        <time>2013-07-25T09:47:14Z</time>
      </trkpt>
      <trkpt lat="46.64813" lon="5.76887">
        <ele>544.24</ele>
        <time>2013-07-25T09:47:30Z</time>
      </trkpt>
      <trkpt lat="46.64806" lon="5.76823">
        <ele>546.17</ele>
        <time>2013-07-25T09:47:46Z</time>
      </trkpt>
      <trkpt lat="46.64781" lon="5.7674">
        <ele>546.17</ele>
        <time>2013-07-25T09:48:05Z</time>
      </trkpt>
      <trkpt lat="46.64775" lon="5.76724">
        <ele>547.13</ele>
        <time>2013-07-25T09:48:08Z</time>
      </trkpt>
      <trkpt lat="46.64765" lon="5.76698">
        <ele>546.17</ele>
        <time>2013-07-25T09:48:13Z</time>
      </trkpt>
      <trkpt lat="46.64755" lon="5.76669">
        <ele>546.17</ele>
        <time>2013-07-25T09:48:18Z</time>
      </trkpt>
      <trkpt lat="46.64728" lon="5.76544">
        <ele>545.2</ele>
        <time>2013-07-25T09:48:37Z</time>
      </trkpt>
      <trkpt lat="46.64729" lon="5.76408">
        <ele>542.8</ele>
        <time>2013-07-25T09:48:52Z</time>
      </trkpt>
      <trkpt lat="46.64732" lon="5.7639">
        <ele>541.84</ele>
        <time>2013-07-25T09:48:54Z</time>
      </trkpt>
      <trkpt lat="46.6477" lon="5.76212">
        <ele>538.96</ele>
        <time>2013-07-25T09:49:13Z</time>
      </trkpt>
      <trkpt lat="46.64784" lon="5.7613">
        <ele>538.96</ele>
        <time>2013-07-25T09:49:22Z</time>
      </trkpt>
      <trkpt lat="46.64781" lon="5.76093">
        <ele>537.99</ele>
        <time>2013-07-25T09:49:26Z</time>
      </trkpt>
      <trkpt lat="46.64755" lon="5.76007">
        <ele>537.03</ele>
        <time>2013-07-25T09:49:36Z</time>
      </trkpt>
      <trkpt lat="46.64748" lon="5.75992">
        <ele>537.51</ele>
        <time>2013-07-25T09:49:38Z</time>
      </trkpt>
      <trkpt lat="46.64733" lon="5.75967">
        <ele>536.55</ele>
        <time>2013-07-25T09:49:42Z</time>
      </trkpt>
      <trkpt lat="46.64717" lon="5.75932">
        <ele>536.55</ele>
        <time>2013-07-25T09:49:47Z</time>
      </trkpt>
      <trkpt lat="46.6466" lon="5.75842">
        <ele>536.55</ele>
        <time>2013-07-25T09:50:02Z</time>
      </trkpt>
      <trkpt lat="46.64605" lon="5.75761">
        <ele>534.63</ele>
        <time>2013-07-25T09:50:15Z</time>
      </trkpt>
      <trkpt lat="46.64588" lon="5.75721">
        <ele>534.15</ele>
        <time>2013-07-25T09:50:20Z</time>
      </trkpt>
      <trkpt lat="46.64583" lon="5.75704">
        <ele>534.15</ele>
        <time>2013-07-25T09:50:22Z</time>
      </trkpt>
      <trkpt lat="46.64571" lon="5.75672">
        <ele>534.15</ele>
        <time>2013-07-25T09:50:26Z</time>
      </trkpt>
      <trkpt lat="46.64533" lon="5.75644">
        <ele>533.67</ele>
        <time>2013-07-25T09:50:33Z</time>
      </trkpt>
      <trkpt lat="46.6448" lon="5.75633">
        <ele>531.75</ele>
        <time>2013-07-25T09:50:41Z</time>
      </trkpt>
      <trkpt lat="46.64461" lon="5.75621">
        <ele>531.75</ele>
        <time>2013-07-25T09:50:44Z</time>
      </trkpt>
      <trkpt lat="46.64387" lon="5.75542">
        <ele>530.79</ele>
        <time>2013-07-25T09:50:58Z</time>
      </trkpt>
      <trkpt lat="46.64298" lon="5.75455">
        <ele>529.34</ele>
        <time>2013-07-25T09:51:14Z</time>
      </trkpt>
      <trkpt lat="46.64201" lon="5.75391">
        <ele>527.9</ele>
        <time>2013-07-25T09:51:30Z</time>
      </trkpt>
      <trkpt lat="46.64124" lon="5.75332">
        <ele>526.46</ele>
        <time>2013-07-25T09:51:43Z</time>
      </trkpt>
      <trkpt lat="46.64029" lon="5.75247">
        <ele>525.02</ele>
        <time>2013-07-25T09:51:59Z</time>
      </trkpt>
      <trkpt lat="46.63933" lon="5.75207">
        <ele>523.09</ele>
        <time>2013-07-25T09:52:13Z</time>
      </trkpt>
      <trkpt lat="46.63831" lon="5.75172">
        <ele>521.65</ele>
        <time>2013-07-25T09:52:29Z</time>
      </trkpt>
      <trkpt lat="46.63725" lon="5.75187">
        <ele>520.21</ele>
        <time>2013-07-25T09:52:46Z</time>
      </trkpt>
      <trkpt lat="46.63697" lon="5.75206">
        <ele>520.21</ele>
        <time>2013-07-25T09:52:51Z</time>
      </trkpt>
      <trkpt lat="46.63629" lon="5.75276">
        <ele>518.77</ele>
        <time>2013-07-25T09:53:05Z</time>
      </trkpt>
      <trkpt lat="46.63613" lon="5.75289">
        <ele>518.29</ele>
        <time>2013-07-25T09:53:08Z</time>
      </trkpt>
      <trkpt lat="46.63564" lon="5.75285">
        <ele>517.81</ele>
        <time>2013-07-25T09:53:17Z</time>
      </trkpt>
      <trkpt lat="46.63473" lon="5.75183">
        <ele>516.85</ele>
        <time>2013-07-25T09:53:34Z</time>
      </trkpt>
      <trkpt lat="46.63461" lon="5.75142">
        <ele>516.85</ele>
        <time>2013-07-25T09:53:39Z</time>
      </trkpt>
      <trkpt lat="46.6344" lon="5.7501">
        <ele>517.81</ele>
        <time>2013-07-25T09:53:56Z</time>
      </trkpt>
      <trkpt lat="46.63437" lon="5.74996">
        <ele>517.81</ele>
        <time>2013-07-25T09:53:58Z</time>
      </trkpt>
      <trkpt lat="46.63427" lon="5.74916">
        <ele>518.29</ele>
        <time>2013-07-25T09:54:09Z</time>
      </trkpt>
      <trkpt lat="46.63424" lon="5.74903">
        <ele>518.29</ele>
        <time>2013-07-25T09:54:11Z</time>
      </trkpt>
      <trkpt lat="46.63415" lon="5.74878">
        <ele>518.29</ele>
        <time>2013-07-25T09:54:15Z</time>
      </trkpt>
      <trkpt lat="46.63396" lon="5.7485">
        <ele>518.77</ele>
        <time>2013-07-25T09:54:21Z</time>
      </trkpt>
      <trkpt lat="46.63341" lon="5.74835">
        <ele>520.69</ele>
        <time>2013-07-25T09:54:36Z</time>
      </trkpt>
      <trkpt lat="46.63276" lon="5.74844">
        <ele>522.13</ele>
        <time>2013-07-25T09:54:53Z</time>
      </trkpt>
      <trkpt lat="46.63222" lon="5.74859">
        <ele>523.58</ele>
        <time>2013-07-25T09:55:08Z</time>
      </trkpt>
      <trkpt lat="46.63165" lon="5.74877">
        <ele>525.02</ele>
        <time>2013-07-25T09:55:25Z</time>
      </trkpt>
      <trkpt lat="46.63111" lon="5.74892">
        <ele>526.46</ele>
        <time>2013-07-25T09:55:41Z</time>
      </trkpt>
      <trkpt lat="46.63067" lon="5.74913">
        <ele>526.94</ele>
        <time>2013-07-25T09:55:55Z</time>
      </trkpt>
      <trkpt lat="46.63015" lon="5.74943">
        <ele>528.86</ele>
        <time>2013-07-25T09:56:10Z</time>
      </trkpt>
      <trkpt lat="46.62968" lon="5.74959">
        <ele>530.3</ele>
        <time>2013-07-25T09:56:24Z</time>
      </trkpt>
      <trkpt lat="46.6293" lon="5.74961">
        <ele>531.75</ele>
        <time>2013-07-25T09:56:38Z</time>
      </trkpt>
      <trkpt lat="46.62918" lon="5.74967">
        <ele>533.19</ele>
        <time>2013-07-25T09:56:44Z</time>
      </trkpt>
      <trkpt lat="46.62908" lon="5.74968">
        <ele>532.71</ele>
        <time>2013-07-25T09:56:48Z</time>
      </trkpt>
      <trkpt lat="46.62873" lon="5.74977">
        <ele>533.19</ele>
        <time>2013-07-25T09:57:02Z</time>
      </trkpt>
      <trkpt lat="46.62829" lon="5.74991">
        <ele>533.67</ele>
        <time>2013-07-25T09:57:18Z</time>
      </trkpt>
      <trkpt lat="46.62784" lon="5.75021">
        <ele>533.67</ele>
        <time>2013-07-25T09:57:33Z</time>
      </trkpt>
      <trkpt lat="46.62733" lon="5.75065">
        <ele>534.15</ele>
        <time>2013-07-25T09:57:50Z</time>
      </trkpt>
      <trkpt lat="46.62717" lon="5.7508">
        <ele>535.11</ele>
        <time>2013-07-25T09:57:56Z</time>
      </trkpt>
      <trkpt lat="46.62683" lon="5.75064">
        <ele>534.63</ele>
        <time>2013-07-25T09:58:06Z</time>
      </trkpt>
      <trkpt lat="46.6267" lon="5.75041">
        <ele>533.19</ele>
        <time>2013-07-25T09:58:12Z</time>
      </trkpt>
      <trkpt lat="46.62664" lon="5.75079">
        <ele>534.15</ele>
        <time>2013-07-25T09:58:24Z</time>
      </trkpt>
      <trkpt lat="46.62655" lon="5.75065">
        <ele>533.19</ele>
        <time>2013-07-25T09:58:28Z</time>
      </trkpt>
      <trkpt lat="46.62634" lon="5.75017">
        <ele>529.34</ele>
        <time>2013-07-25T09:58:33Z</time>
      </trkpt>
      <trkpt lat="46.626" lon="5.74916">
        <ele>527.9</ele>
        <time>2013-07-25T09:58:43Z</time>
      </trkpt>
      <trkpt lat="46.62591" lon="5.74894">
        <ele>528.38</ele>
        <time>2013-07-25T09:58:46Z</time>
      </trkpt>
      <trkpt lat="46.62565" lon="5.74874">
        <ele>529.34</ele>
        <time>2013-07-25T09:58:54Z</time>
      </trkpt>
      <trkpt lat="46.62524" lon="5.74884">
        <ele>531.75</ele>
        <time>2013-07-25T09:59:08Z</time>
      </trkpt>
      <trkpt lat="46.62475" lon="5.74867">
        <ele>533.19</ele>
        <time>2013-07-25T09:59:24Z</time>
      </trkpt>
      <trkpt lat="46.62428" lon="5.74837">
        <ele>533.19</ele>
        <time>2013-07-25T09:59:38Z</time>
      </trkpt>
      <trkpt lat="46.62372" lon="5.74811">
        <ele>533.67</ele>
        <time>2013-07-25T09:59:53Z</time>
      </trkpt>
      <trkpt lat="46.62297" lon="5.74815">
        <ele>533.67</ele>
        <time>2013-07-25T10:00:12Z</time>
      </trkpt>
      <trkpt lat="46.62273" lon="5.74796">
        <ele>534.63</ele>
        <time>2013-07-25T10:00:19Z</time>
      </trkpt>
      <trkpt lat="46.62271" lon="5.74774">
        <ele>534.63</ele>
        <time>2013-07-25T10:00:23Z</time>
      </trkpt>
      <trkpt lat="46.62272" lon="5.74671">
        <ele>533.19</ele>
        <time>2013-07-25T10:00:40Z</time>
      </trkpt>
      <trkpt lat="46.62251" lon="5.7466">
        <ele>532.71</ele>
        <time>2013-07-25T10:00:49Z</time>
      </trkpt>
      <trkpt lat="46.62252" lon="5.74664">
        <ele>533.19</ele>
        <time>2013-07-25T10:01:02Z</time>
      </trkpt>
      <trkpt lat="46.62253" lon="5.74665">
        <ele>533.19</ele>
        <time>2013-07-25T10:01:45Z</time>
      </trkpt>
      <trkpt lat="46.62253" lon="5.74666">
        <ele>533.19</ele>
        <time>2013-07-25T10:02:12Z</time>
      </trkpt>
      <trkpt lat="46.62256" lon="5.74666">
        <ele>532.71</ele>
        <time>2013-07-25T10:02:20Z</time>
      </trkpt>
      <trkpt lat="46.62259" lon="5.74664">
        <ele>533.67</ele>
        <time>2013-07-25T10:02:26Z</time>
      </trkpt>
    </trkseg>
  </trk>
</gpx>